Observation data for Lomax on 06/25/2019      Previous  Date  Next       Current Mesonet Observations  Soil Data  Daily Summary Page  Observations in Plain Language
KLO1 250500Z 12007KT 22/12 A2994 RMK A01 T02220117  RH  051%=      5-min Rain = 0
KLO1 250501Z 13007KT 22/12 A2995 RMK A01 T02220117  RH  051%=      5-min Rain = 0
KLO1 250502Z 13007KT 22/12 A2995 RMK A01 T02220117  RH  051%=      5-min Rain = 0
KLO1 250503Z 12007KT 22/12 A2995 RMK A01 T02220117  RH  051%=      5-min Rain = 0
KLO1 250504Z 12008KT 22/12 A2995 RMK A01 T02220117  RH  051%=      5-min Rain = 0
KLO1 250505Z 12008KT 22/12 A2995 RMK A01 T02210117  RH  052%=      5-min Rain = 0
KLO1 250506Z 11008KT 22/12 A2995 RMK A01 T02210117  RH  052%=      5-min Rain = 0
KLO1 250507Z 11009KT 22/12 A2995 RMK A01 T02210117  RH  052%=      5-min Rain = 0
KLO1 250508Z 12007KT 22/12 A2995 RMK A01 T02200117  RH  052%=      5-min Rain = 0
KLO1 250509Z 11008KT 22/12 A2995 RMK A01 T02200117  RH  052%=      5-min Rain = 0
KLO1 250510Z 12009KT 22/12 A2994 RMK A01 T02190117  RH  052%=      5-min Rain = 0
KLO1 250511Z 12009KT 22/12 A2994 RMK A01 T02190118  RH  053%=      5-min Rain = 0
KLO1 250512Z 12009KT 22/12 A2994 RMK A01 T02190118  RH  053%=      5-min Rain = 0
KLO1 250513Z 12010KT 22/12 A2994 RMK A01 T02180118  RH  053%=      5-min Rain = 0
KLO1 250514Z 13011KT 22/12 A2994 RMK A01 T02180118  RH  053%=      5-min Rain = 0
KLO1 250515Z 13010KT 22/12 A2994 RMK A01 T02190119  RH  053%=      5-min Rain = 0
KLO1 250516Z 13010KT 22/12 A2994 RMK A01 T02190118  RH  053%=      5-min Rain = 0
KLO1 250517Z 13010KT 22/12 A2994 RMK A01 T02190119  RH  053%=      5-min Rain = 0
KLO1 250518Z 13011KT 22/12 A2994 RMK A01 T02200119  RH  053%=      5-min Rain = 0
KLO1 250519Z 13009KT 22/12 A2995 RMK A01 T02200119  RH  053%=      5-min Rain = 0
KLO1 250520Z 13010KT 22/12 A2995 RMK A01 T02200119  RH  053%=      5-min Rain = 0
KLO1 250521Z 13010KT 22/12 A2995 RMK A01 T02200120  RH  053%=      5-min Rain = 0
KLO1 250522Z 11009KT 22/12 A2996 RMK A01 T02200120  RH  053%=      5-min Rain = 0
KLO1 250523Z 10008KT 22/12 A2996 RMK A01 T02200121  RH  053%=      5-min Rain = 0
KLO1 250524Z 09007KT 22/12 A2996 RMK A01 T02200121  RH  053%=      5-min Rain = 0
KLO1 250525Z 08007KT 22/12 A2997 RMK A01 T02190121  RH  054%=      5-min Rain = 0
KLO1 250526Z 06006KT 22/12 A2997 RMK A01 T02180122  RH  054%=      5-min Rain = 0
KLO1 250527Z 05008KT 22/12 A2997 RMK A01 T02180122  RH  055%=      5-min Rain = 0
KLO1 250528Z 05009KT 22/12 A2998 RMK A01 T02170123  RH  055%=      5-min Rain = 0
KLO1 250529Z 04010KT 22/12 A2998 RMK A01 T02170123  RH  055%=      5-min Rain = 0
KLO1 250530Z 04011KT 22/12 A2998 RMK A01 T02160122  RH  055%=      5-min Rain = 0
KLO1 250531Z 05011KT 22/12 A2998 RMK A01 T02150122  RH  056%=      5-min Rain = 0
KLO1 250532Z 05011KT 22/12 A2998 RMK A01 T02150123  RH  056%=      5-min Rain = 0
KLO1 250533Z 06010KT 22/12 A2998 RMK A01 T02160123  RH  056%=      5-min Rain = 0
KLO1 250534Z 06010KT 22/12 A2998 RMK A01 T02160123  RH  056%=      5-min Rain = 0
KLO1 250535Z 06008KT 22/12 A2997 RMK A01 T02160123  RH  055%=      5-min Rain = 0
KLO1 250536Z 08008KT 22/12 A2997 RMK A01 T02170123  RH  055%=      5-min Rain = 0
KLO1 250537Z 10009KT 22/12 A2997 RMK A01 T02170123  RH  055%=      5-min Rain = 0
KLO1 250538Z 10010KT 22/12 A2997 RMK A01 T02180123  RH  055%=      5-min Rain = 0
KLO1 250539Z 12010KT 22/12 A2996 RMK A01 T02180123  RH  055%=      5-min Rain = 0
KLO1 250540Z 13010KT 22/12 A2996 RMK A01 T02180123  RH  055%=      5-min Rain = 0
KLO1 250541Z 13010KT 22/12 A2996 RMK A01 T02180123  RH  055%=      5-min Rain = 0
KLO1 250542Z 13010KT 22/12 A2995 RMK A01 T02180124  RH  055%=      5-min Rain = 0
KLO1 250543Z 14011KT 22/12 A2995 RMK A01 T02180124  RH  055%=      5-min Rain = 0
KLO1 250544Z 14011KT 22/12 A2995 RMK A01 T02180124  RH  055%=      5-min Rain = 0
KLO1 250545Z 14012KT 22/12 A2995 RMK A01 T02180124  RH  055%=      5-min Rain = 0
KLO1 250546Z 13010KT 22/13 A2995 RMK A01 T02180125  RH  055%=      5-min Rain = 0
KLO1 250547Z 14012KT 22/13 A2995 RMK A01 T02170125  RH  056%=      5-min Rain = 0
KLO1 250548Z 13012KT 22/13 A2995 RMK A01 T02170125  RH  056%=      5-min Rain = 0
KLO1 250549Z 13012KT 22/13 A2995 RMK A01 T02170125  RH  056%=      5-min Rain = 0
KLO1 250550Z 13012KT 22/13 A2995 RMK A01 T02170125  RH  056%=      5-min Rain = 0
KLO1 250551Z 14013KT 22/13 A2995 RMK A01 T02170125  RH  056%=      5-min Rain = 0
KLO1 250552Z 13012KT 22/13 A2995 RMK A01 T02160126  RH  056%=      5-min Rain = 0
KLO1 250553Z 13013KT 22/13 A2995 RMK A01 T02160126  RH  056%=      5-min Rain = 0
KLO1 250554Z 13012KT 22/13 A2995 RMK A01 T02160126  RH  057%=      5-min Rain = 0
KLO1 250555Z 13011KT 22/13 A2995 RMK A01 T02160126  RH  057%=      5-min Rain = 0
KLO1 250556Z 14010KT 22/13 A2995 RMK A01 T02150126  RH  057%=      5-min Rain = 0
KLO1 250557Z 14011KT 21/13 A2995 RMK A01 T02140127  RH  057%=      5-min Rain = 0
KLO1 250558Z 14011KT 21/13 A2995 RMK A01 T02140128  RH  058%=      5-min Rain = 0
KLO1 250559Z 14010KT 21/13 A2995 RMK A01 T02140127  RH  058%=      5-min Rain = 0
KLO1 250600Z 14010KT 21/13 A2995 RMK A01 T02140128  RH  058%=      5-min Rain = 0
KLO1 250601Z 15009KT 21/13 A2995 RMK A01 T02140128  RH  058%=      5-min Rain = 0
KLO1 250602Z 15010KT 21/13 A2995 RMK A01 T02130128  RH  058%=      5-min Rain = 0
KLO1 250603Z 15011KT 21/13 A2995 RMK A01 T02130128  RH  058%=      5-min Rain = 0
KLO1 250604Z 15010KT 21/13 A2995 RMK A01 T02130128  RH  059%=      5-min Rain = 0
KLO1 250605Z 16010KT 21/13 A2995 RMK A01 T02130128  RH  059%=      5-min Rain = 0
KLO1 250606Z 16010KT 21/13 A2995 RMK A01 T02120128  RH  058%=      5-min Rain = 0
KLO1 250607Z 17009KT 21/13 A2995 RMK A01 T02120128  RH  058%=      5-min Rain = 0
KLO1 250608Z 17009KT 21/13 A2995 RMK A01 T02130128  RH  059%=      5-min Rain = 0
KLO1 250609Z 16009KT 21/13 A2995 RMK A01 T02120128  RH  059%=      5-min Rain = 0
KLO1 250610Z 16009KT 21/13 A2995 RMK A01 T02120128  RH  059%=      5-min Rain = 0
KLO1 250611Z 16009KT 21/13 A2995 RMK A01 T02120129  RH  059%=      5-min Rain = 0
KLO1 250612Z 15009KT 21/13 A2995 RMK A01 T02120129  RH  059%=      5-min Rain = 0
KLO1 250613Z 15008KT 21/13 A2995 RMK A01 T02120129  RH  059%=      5-min Rain = 0
KLO1 250614Z 15009KT 21/13 A2995 RMK A01 T02120130  RH  059%=      5-min Rain = 0
KLO1 250615Z 14008KT 21/13 A2995 RMK A01 T02110130  RH  060%=      5-min Rain = 0
KLO1 250616Z 15007KT 21/13 A2995 RMK A01 T02110130  RH  060%=      5-min Rain = 0
KLO1 250617Z 15009KT 21/13 A2995 RMK A01 T02110130  RH  060%=      5-min Rain = 0
KLO1 250618Z 15008KT 21/13 A2995 RMK A01 T02110130  RH  060%=      5-min Rain = 0
KLO1 250619Z 14008KT 21/13 A2995 RMK A01 T02100130  RH  060%=      5-min Rain = 0
KLO1 250620Z 14008KT 21/13 A2995 RMK A01 T02100130  RH  060%=      5-min Rain = 0
KLO1 250621Z 13007KT 21/13 A2996 RMK A01 T02100130  RH  060%=      5-min Rain = 0
KLO1 250622Z 13007KT 21/13 A2996 RMK A01 T02100131  RH  061%=      5-min Rain = 0
KLO1 250623Z 13007KT 21/13 A2996 RMK A01 T02090131  RH  061%=      5-min Rain = 0
KLO1 250624Z 12005KT 21/13 A2995 RMK A01 T02090131  RH  061%=      5-min Rain = 0
KLO1 250625Z 13005KT 21/13 A2995 RMK A01 T02090131  RH  061%=      5-min Rain = 0
KLO1 250626Z 12005KT 21/13 A2995 RMK A01 T02090131  RH  061%=      5-min Rain = 0
KLO1 250627Z 11005KT 21/13 A2996 RMK A01 T02080131  RH  061%=      5-min Rain = 0
KLO1 250628Z 10005KT 21/13 A2996 RMK A01 T02080131  RH  061%=      5-min Rain = 0
KLO1 250629Z 07004KT 21/13 A2996 RMK A01 T02070131  RH  062%=      5-min Rain = 0
KLO1 250630Z 06005KT 21/13 A2996 RMK A01 T02070132  RH  062%=      5-min Rain = 0
KLO1 250631Z 06005KT 21/13 A2996 RMK A01 T02050132  RH  063%=      5-min Rain = 0
KLO1 250632Z 06006KT 20/13 A2996 RMK A01 T02030131  RH  063%=      5-min Rain = 0
KLO1 250633Z 07007KT 20/13 A2996 RMK A01 T02020131  RH  064%=      5-min Rain = 0
KLO1 250634Z 07006KT 20/13 A2996 RMK A01 T02010131  RH  064%=      5-min Rain = 0
KLO1 250635Z 07008KT 20/13 A2996 RMK A01 T02010131  RH  064%=      5-min Rain = 0
KLO1 250636Z 08008KT 20/13 A2996 RMK A01 T02010131  RH  064%=      5-min Rain = 0
KLO1 250637Z 08007KT 20/13 A2996 RMK A01 T02010131  RH  064%=      5-min Rain = 0
KLO1 250638Z 08006KT 20/13 A2996 RMK A01 T02020131  RH  064%=      5-min Rain = 0
KLO1 250639Z 09008KT 20/13 A2996 RMK A01 T02020131  RH  064%=      5-min Rain = 0
KLO1 250640Z 10007KT 20/13 A2996 RMK A01 T02020131  RH  064%=      5-min Rain = 0
KLO1 250641Z 10007KT 20/13 A2996 RMK A01 T02020130  RH  063%=      5-min Rain = 0
KLO1 250642Z 11006KT 20/13 A2996 RMK A01 T02030130  RH  063%=      5-min Rain = 0
KLO1 250643Z 12007KT 20/13 A2996 RMK A01 T02030130  RH  063%=      5-min Rain = 0
KLO1 250644Z 12007KT 20/13 A2996 RMK A01 T02030130  RH  063%=      5-min Rain = 0
KLO1 250645Z 13008KT 20/13 A2996 RMK A01 T02030130  RH  063%=      5-min Rain = 0
KLO1 250646Z 14008KT 20/13 A2996 RMK A01 T02040130  RH  063%=      5-min Rain = 0
KLO1 250647Z 14009KT 20/13 A2996 RMK A01 T02030130  RH  063%=      5-min Rain = 0
KLO1 250648Z 14009KT 20/13 A2996 RMK A01 T02030130  RH  063%=      5-min Rain = 0
KLO1 250649Z 14009KT 20/13 A2995 RMK A01 T02030130  RH  063%=      5-min Rain = 0
KLO1 250650Z 15008KT 20/13 A2995 RMK A01 T02030130  RH  063%=      5-min Rain = 0
KLO1 250651Z 16008KT 20/13 A2995 RMK A01 T02040130  RH  063%=      5-min Rain = 0
KLO1 250652Z 16009KT 20/13 A2995 RMK A01 T02030130  RH  063%=      5-min Rain = 0
KLO1 250653Z 17008KT 20/13 A2995 RMK A01 T02030130  RH  063%=      5-min Rain = 0
KLO1 250654Z 18008KT 20/13 A2995 RMK A01 T02030130  RH  063%=      5-min Rain = 0
KLO1 250655Z 18009KT 20/13 A2995 RMK A01 T02030131  RH  063%=      5-min Rain = 0
KLO1 250656Z 17009KT 20/13 A2996 RMK A01 T02030131  RH  063%=      5-min Rain = 0
KLO1 250657Z 17009KT 20/13 A2996 RMK A01 T02030131  RH  063%=      5-min Rain = 0
KLO1 250658Z 17008KT 20/13 A2996 RMK A01 T02030131  RH  063%=      5-min Rain = 0
KLO1 250659Z 17007KT 20/13 A2996 RMK A01 T02030131  RH  063%=      5-min Rain = 0
KLO1 250700Z 17007KT 20/13 A2996 RMK A01 T02020131  RH  064%=      5-min Rain = 0
KLO1 250701Z 17007KT 20/13 A2996 RMK A01 T02020132  RH  064%=      5-min Rain = 0
KLO1 250702Z 17007KT 20/13 A2996 RMK A01 T02010131  RH  064%=      5-min Rain = 0
KLO1 250703Z 18006KT 20/13 A2996 RMK A01 T02010131  RH  064%=      5-min Rain = 0
KLO1 250704Z 17006KT 20/13 A2995 RMK A01 T02010131  RH  064%=      5-min Rain = 0
KLO1 250705Z 17006KT 20/13 A2995 RMK A01 T02010131  RH  064%=      5-min Rain = 0
KLO1 250706Z 17005KT 20/13 A2995 RMK A01 T02010131  RH  064%=      5-min Rain = 0
KLO1 250707Z 18005KT 20/13 A2995 RMK A01 T02010131  RH  064%=      5-min Rain = 0
KLO1 250708Z 18005KT 20/13 A2995 RMK A01 T02000131  RH  064%=      5-min Rain = 0
KLO1 250709Z 18005KT 20/13 A2995 RMK A01 T02000131  RH  064%=      5-min Rain = 0
KLO1 250710Z 18005KT 20/13 A2995 RMK A01 T02000132  RH  065%=      5-min Rain = 0
KLO1 250711Z 18005KT 20/13 A2995 RMK A01 T02000132  RH  065%=      5-min Rain = 0
KLO1 250712Z 18005KT 20/13 A2995 RMK A01 T02000132  RH  065%=      5-min Rain = 0
KLO1 250713Z 18004KT 20/13 A2995 RMK A01 T01990132  RH  065%=      5-min Rain = 0
KLO1 250714Z 18004KT 20/13 A2995 RMK A01 T01990132  RH  065%=      5-min Rain = 0
KLO1 250715Z 18004KT 20/13 A2995 RMK A01 T01990133  RH  066%=      5-min Rain = 0
KLO1 250716Z 17004KT 20/13 A2996 RMK A01 T01990132  RH  066%=      5-min Rain = 0
KLO1 250717Z 17005KT 20/13 A2996 RMK A01 T01980132  RH  066%=      5-min Rain = 0
KLO1 250718Z 17004KT 20/13 A2996 RMK A01 T01980132  RH  066%=      5-min Rain = 0
KLO1 250719Z 17004KT 20/13 A2996 RMK A01 T01980132  RH  066%=      5-min Rain = 0
KLO1 250720Z 17005KT 20/13 A2996 RMK A01 T01980132  RH  066%=      5-min Rain = 0
KLO1 250721Z 17004KT 20/13 A2996 RMK A01 T01980132  RH  065%=      5-min Rain = 0
KLO1 250722Z 18004KT 20/13 A2995 RMK A01 T01980132  RH  065%=      5-min Rain = 0
KLO1 250723Z 19005KT 20/13 A2995 RMK A01 T01990132  RH  066%=      5-min Rain = 0
KLO1 250724Z 18005KT 20/13 A2995 RMK A01 T01990133  RH  066%=      5-min Rain = 0
KLO1 250725Z 18006KT 20/13 A2996 RMK A01 T01990133  RH  066%=      5-min Rain = 0
KLO1 250726Z 18006KT 20/13 A2996 RMK A01 T02000133  RH  066%=      5-min Rain = 0
KLO1 250727Z 18006KT 20/13 A2996 RMK A01 T02000133  RH  065%=      5-min Rain = 0
KLO1 250728Z 19007KT 20/13 A2995 RMK A01 T02010134  RH  065%=      5-min Rain = 0
KLO1 250729Z 19007KT 20/13 A2995 RMK A01 T02020134  RH  065%=      5-min Rain = 0
KLO1 250730Z 19007KT 20/13 A2996 RMK A01 T02020134  RH  065%=      5-min Rain = 0
KLO1 250731Z 19008KT 20/13 A2996 RMK A01 T02020134  RH  065%=      5-min Rain = 0
KLO1 250732Z 19007KT 20/13 A2995 RMK A01 T02030134  RH  064%=      5-min Rain = 0
KLO1 250733Z 19008KT 20/13 A2996 RMK A01 T02040134  RH  064%=      5-min Rain = 0
KLO1 250734Z 19009KT 20/13 A2996 RMK A01 T02040134  RH  064%=      5-min Rain = 0
KLO1 250735Z 18009KT 21/13 A2996 RMK A01 T02050134  RH  064%=      5-min Rain = 0
KLO1 250736Z 18009KT 21/13 A2996 RMK A01 T02060134  RH  064%=      5-min Rain = 0
KLO1 250737Z 18008KT 21/13 A2996 RMK A01 T02060134  RH  063%=      5-min Rain = 0
KLO1 250738Z 18009KT 21/13 A2996 RMK A01 T02060134  RH  063%=      5-min Rain = 0
KLO1 250739Z 18010KT 21/13 A2996 RMK A01 T02060134  RH  063%=      5-min Rain = 0
KLO1 250740Z 18012KT 21/13 A2996 RMK A01 T02070134  RH  063%=      5-min Rain = 0
KLO1 250741Z 18013KT 21/13 A2996 RMK A01 T02080134  RH  062%=      5-min Rain = 0
KLO1 250742Z 18012KT 21/13 A2996 RMK A01 T02100134  RH  062%=      5-min Rain = 0
KLO1 250743Z 18012KT 21/13 A2995 RMK A01 T02100133  RH  062%=      5-min Rain = 0
KLO1 250744Z 18013KT 21/13 A2995 RMK A01 T02100134  RH  061%=      5-min Rain = 0
KLO1 250745Z 18012KT 21/13 A2995 RMK A01 T02100133  RH  061%=      5-min Rain = 0
KLO1 250746Z 18012KT 21/13 A2995 RMK A01 T02100133  RH  061%=      5-min Rain = 0
KLO1 250747Z 19011KT 21/13 A2995 RMK A01 T02100133  RH  061%=      5-min Rain = 0
KLO1 250748Z 18011KT 21/13 A2995 RMK A01 T02100134  RH  061%=      5-min Rain = 0
KLO1 250749Z 18011KT 21/13 A2995 RMK A01 T02100134  RH  062%=      5-min Rain = 0
KLO1 250750Z 18010KT 21/13 A2995 RMK A01 T02100134  RH  062%=      5-min Rain = 0
KLO1 250751Z 18010KT 21/13 A2995 RMK A01 T02100134  RH  062%=      5-min Rain = 0
KLO1 250752Z 19010KT 21/13 A2996 RMK A01 T02090134  RH  062%=      5-min Rain = 0
KLO1 250753Z 19010KT 21/13 A2996 RMK A01 T02090134  RH  062%=      5-min Rain = 0
KLO1 250754Z 18010KT 21/14 A2996 RMK A01 T02090135  RH  063%=      5-min Rain = 0
KLO1 250755Z 18010KT 21/14 A2996 RMK A01 T02090135  RH  063%=      5-min Rain = 0
KLO1 250756Z 18010KT 21/14 A2996 RMK A01 T02090135  RH  063%=      5-min Rain = 0
KLO1 250757Z 18011KT 21/14 A2996 RMK A01 T02090135  RH  063%=      5-min Rain = 0
KLO1 250758Z 18009KT 21/14 A2996 RMK A01 T02080135  RH  063%=      5-min Rain = 0
KLO1 250759Z 18010KT 21/14 A2996 RMK A01 T02080135  RH  063%=      5-min Rain = 0
KLO1 250800Z 18010KT 21/14 A2996 RMK A01 T02080135  RH  063%=      5-min Rain = 0
KLO1 250801Z 17009KT 21/14 A2996 RMK A01 T02080135  RH  063%=      5-min Rain = 0
KLO1 250802Z 18010KT 21/14 A2996 RMK A01 T02080135  RH  063%=      5-min Rain = 0
KLO1 250803Z 18010KT 21/14 A2996 RMK A01 T02080135  RH  063%=      5-min Rain = 0
KLO1 250804Z 18011KT 21/14 A2996 RMK A01 T02080135  RH  063%=      5-min Rain = 0
KLO1 250805Z 18010KT 21/14 A2996 RMK A01 T02080135  RH  063%=      5-min Rain = 0
KLO1 250806Z 18010KT 21/14 A2996 RMK A01 T02080136  RH  063%=      5-min Rain = 0
KLO1 250807Z 18010KT 21/14 A2996 RMK A01 T02080136  RH  063%=      5-min Rain = 0
KLO1 250808Z 18010KT 21/14 A2996 RMK A01 T02070136  RH  064%=      5-min Rain = 0
KLO1 250809Z 18009KT 21/14 A2996 RMK A01 T02070136  RH  064%=      5-min Rain = 0
KLO1 250810Z 18011KT 21/14 A2996 RMK A01 T02070136  RH  064%=      5-min Rain = 0
KLO1 250811Z 18010KT 21/14 A2996 RMK A01 T02070137  RH  064%=      5-min Rain = 0
KLO1 250812Z 18009KT 21/14 A2996 RMK A01 T02070137  RH  064%=      5-min Rain = 0
KLO1 250813Z 18009KT 21/14 A2996 RMK A01 T02060137  RH  064%=      5-min Rain = 0
KLO1 250814Z 18009KT 21/14 A2996 RMK A01 T02060137  RH  065%=      5-min Rain = 0
KLO1 250815Z 18010KT 21/14 A2996 RMK A01 T02050137  RH  065%=      5-min Rain = 0
KLO1 250816Z 18010KT 21/14 A2996 RMK A01 T02050137  RH  065%=      5-min Rain = 0
KLO1 250817Z 17010KT 21/14 A2996 RMK A01 T02050137  RH  065%=      5-min Rain = 0
KLO1 250818Z 18009KT 21/14 A2996 RMK A01 T02050137  RH  065%=      5-min Rain = 0
KLO1 250819Z 18010KT 21/14 A2996 RMK A01 T02050137  RH  065%=      5-min Rain = 0
KLO1 250820Z 18010KT 21/14 A2996 RMK A01 T02050138  RH  065%=      5-min Rain = 0
KLO1 250821Z 18010KT 21/14 A2996 RMK A01 T02050138  RH  065%=      5-min Rain = 0
KLO1 250822Z 18010KT 21/14 A2996 RMK A01 T02050138  RH  066%=      5-min Rain = 0
KLO1 250823Z 18011KT 20/14 A2996 RMK A01 T02040138  RH  066%=      5-min Rain = 0
KLO1 250824Z 19010KT 20/14 A2995 RMK A01 T02040139  RH  066%=      5-min Rain = 0
KLO1 250825Z 18011KT 20/14 A2995 RMK A01 T02040139  RH  066%=      5-min Rain = 0
KLO1 250826Z 18010KT 20/14 A2995 RMK A01 T02040139  RH  066%=      5-min Rain = 0
KLO1 250827Z 19010KT 20/14 A2995 RMK A01 T02040140  RH  067%=      5-min Rain = 0
KLO1 250828Z 18011KT 20/14 A2996 RMK A01 T02040140  RH  067%=      5-min Rain = 0
KLO1 250829Z 18009KT 20/14 A2996 RMK A01 T02040140  RH  067%=      5-min Rain = 0
KLO1 250830Z 18010KT 20/14 A2996 RMK A01 T02040141  RH  067%=      5-min Rain = 0
KLO1 250831Z 18010KT 20/14 A2995 RMK A01 T02030141  RH  067%=      5-min Rain = 0
KLO1 250832Z 19011KT 20/14 A2995 RMK A01 T02030141  RH  067%=      5-min Rain = 0
KLO1 250833Z 19009KT 20/14 A2995 RMK A01 T02030141  RH  067%=      5-min Rain = 0
KLO1 250834Z 19009KT 20/14 A2995 RMK A01 T02030142  RH  068%=      5-min Rain = 0
KLO1 250835Z 19008KT 20/14 A2995 RMK A01 T02030142  RH  068%=      5-min Rain = 0
KLO1 250836Z 18008KT 20/14 A2995 RMK A01 T02030142  RH  068%=      5-min Rain = 0
KLO1 250837Z 18009KT 20/14 A2995 RMK A01 T02030142  RH  068%=      5-min Rain = 0
KLO1 250838Z 18009KT 20/14 A2995 RMK A01 T02020142  RH  068%=      5-min Rain = 0
KLO1 250839Z 18010KT 20/14 A2995 RMK A01 T02020142  RH  068%=      5-min Rain = 0
KLO1 250840Z 18008KT 20/14 A2995 RMK A01 T02020142  RH  068%=      5-min Rain = 0
KLO1 250841Z 18009KT 20/14 A2995 RMK A01 T02010142  RH  068%=      5-min Rain = 0
KLO1 250842Z 18009KT 20/14 A2995 RMK A01 T02010142  RH  069%=      5-min Rain = 0
KLO1 250843Z 17009KT 20/14 A2995 RMK A01 T02010142  RH  069%=      5-min Rain = 0
KLO1 250844Z 17009KT 20/14 A2995 RMK A01 T02010142  RH  069%=      5-min Rain = 0
KLO1 250845Z 17008KT 20/14 A2995 RMK A01 T02010142  RH  069%=      5-min Rain = 0
KLO1 250846Z 17007KT 20/14 A2995 RMK A01 T02010142  RH  069%=      5-min Rain = 0
KLO1 250847Z 18008KT 20/14 A2995 RMK A01 T02000142  RH  069%=      5-min Rain = 0
KLO1 250848Z 18008KT 20/14 A2995 RMK A01 T02000142  RH  069%=      5-min Rain = 0
KLO1 250849Z 18007KT 20/14 A2995 RMK A01 T02000142  RH  069%=      5-min Rain = 0
KLO1 250850Z 18007KT 20/14 A2995 RMK A01 T02000142  RH  069%=      5-min Rain = 0
KLO1 250851Z 18008KT 20/14 A2995 RMK A01 T02000142  RH  069%=      5-min Rain = 0
KLO1 250852Z 18009KT 20/14 A2995 RMK A01 T01990142  RH  070%=      5-min Rain = 0
KLO1 250853Z 18008KT 20/14 A2995 RMK A01 T01990143  RH  070%=      5-min Rain = 0
KLO1 250854Z 18008KT 20/14 A2995 RMK A01 T01990143  RH  070%=      5-min Rain = 0
KLO1 250855Z 18009KT 20/14 A2995 RMK A01 T01990143  RH  070%=      5-min Rain = 0
KLO1 250856Z 19007KT 20/14 A2995 RMK A01 T01990143  RH  070%=      5-min Rain = 0
KLO1 250857Z 19009KT 20/14 A2995 RMK A01 T01990143  RH  070%=      5-min Rain = 0
KLO1 250858Z 19007KT 20/14 A2995 RMK A01 T01990143  RH  070%=      5-min Rain = 0
KLO1 250859Z 19007KT 20/14 A2995 RMK A01 T01980143  RH  070%=      5-min Rain = 0
KLO1 250900Z 19007KT 20/14 A2995 RMK A01 T01980143  RH  071%=      5-min Rain = 0
KLO1 250901Z 19007KT 20/14 A2995 RMK A01 T01970143  RH  071%=      5-min Rain = 0
KLO1 250902Z 19007KT 20/14 A2995 RMK A01 T01970143  RH  071%=      5-min Rain = 0
KLO1 250903Z 19007KT 20/14 A2995 RMK A01 T01970143  RH  071%=      5-min Rain = 0
KLO1 250904Z 20007KT 20/14 A2995 RMK A01 T01960143  RH  071%=      5-min Rain = 0
KLO1 250905Z 20007KT 20/14 A2995 RMK A01 T01960143  RH  071%=      5-min Rain = 0
KLO1 250906Z 20007KT 20/14 A2995 RMK A01 T01970143  RH  071%=      5-min Rain = 0
KLO1 250907Z 19006KT 20/14 A2995 RMK A01 T01970143  RH  071%=      5-min Rain = 0
KLO1 250908Z 20006KT 20/14 A2995 RMK A01 T01970143  RH  071%=      5-min Rain = 0
KLO1 250909Z 20007KT 20/14 A2995 RMK A01 T01960143  RH  071%=      5-min Rain = 0
KLO1 250910Z 20006KT 20/14 A2995 RMK A01 T01950143  RH  072%=      5-min Rain = 0
KLO1 250911Z 20006KT 20/14 A2995 RMK A01 T01950143  RH  072%=      5-min Rain = 0
KLO1 250912Z 20006KT 20/14 A2995 RMK A01 T01950143  RH  072%=      5-min Rain = 0
KLO1 250913Z 20006KT 20/14 A2995 RMK A01 T01950143  RH  072%=      5-min Rain = 0
KLO1 250914Z 20006KT 19/14 A2995 RMK A01 T01940143  RH  072%=      5-min Rain = 0
KLO1 250915Z 20006KT 19/14 A2995 RMK A01 T01940143  RH  072%=      5-min Rain = 0
KLO1 250916Z 20007KT 19/14 A2995 RMK A01 T01940143  RH  072%=      5-min Rain = 0
KLO1 250917Z 20006KT 19/14 A2995 RMK A01 T01940143  RH  073%=      5-min Rain = 0
KLO1 250918Z 20007KT 19/14 A2995 RMK A01 T01940144  RH  073%=      5-min Rain = 0
KLO1 250919Z 20007KT 19/14 A2995 RMK A01 T01940143  RH  073%=      5-min Rain = 0
KLO1 250920Z 20007KT 19/14 A2995 RMK A01 T01940144  RH  073%=      5-min Rain = 0
KLO1 250921Z 20007KT 19/14 A2995 RMK A01 T01940144  RH  073%=      5-min Rain = 0
KLO1 250922Z 20008KT 19/14 A2995 RMK A01 T01940144  RH  073%=      5-min Rain = 0
KLO1 250923Z 19009KT 19/14 A2995 RMK A01 T01940144  RH  073%=      5-min Rain = 0
KLO1 250924Z 19008KT 20/15 A2995 RMK A01 T01950145  RH  073%=      5-min Rain = 0
KLO1 250925Z 19008KT 20/15 A2995 RMK A01 T01950145  RH  073%=      5-min Rain = 0
KLO1 250926Z 19008KT 20/15 A2995 RMK A01 T01950145  RH  073%=      5-min Rain = 0
KLO1 250927Z 19008KT 20/15 A2995 RMK A01 T01950145  RH  073%=      5-min Rain = 0
KLO1 250928Z 19008KT 20/15 A2995 RMK A01 T01960146  RH  073%=      5-min Rain = 0
KLO1 250929Z 19008KT 20/15 A2995 RMK A01 T01960146  RH  073%=      5-min Rain = 0
KLO1 250930Z 19007KT 20/15 A2995 RMK A01 T01960146  RH  073%=      5-min Rain = 0
KLO1 250931Z 19008KT 20/15 A2995 RMK A01 T01960146  RH  073%=      5-min Rain = 0
KLO1 250932Z 19007KT 20/15 A2995 RMK A01 T01960146  RH  073%=      5-min Rain = 0
KLO1 250933Z 19007KT 20/15 A2995 RMK A01 T01960147  RH  073%=      5-min Rain = 0
KLO1 250934Z 19009KT 20/15 A2995 RMK A01 T01960147  RH  073%=      5-min Rain = 0
KLO1 250935Z 18007KT 20/15 A2995 RMK A01 T01960147  RH  073%=      5-min Rain = 0
KLO1 250936Z 19007KT 20/15 A2995 RMK A01 T01960147  RH  073%=      5-min Rain = 0
KLO1 250937Z 18006KT 20/15 A2995 RMK A01 T01960147  RH  073%=      5-min Rain = 0
KLO1 250938Z 18006KT 20/15 A2995 RMK A01 T01960147  RH  073%=      5-min Rain = 0
KLO1 250939Z 18006KT 20/15 A2995 RMK A01 T01960147  RH  073%=      5-min Rain = 0
KLO1 250940Z 18005KT 20/15 A2995 RMK A01 T01960147  RH  074%=      5-min Rain = 0
KLO1 250941Z 18005KT 20/15 A2995 RMK A01 T01950147  RH  074%=      5-min Rain = 0
KLO1 250942Z 19006KT 20/15 A2995 RMK A01 T01950147  RH  074%=      5-min Rain = 0
KLO1 250943Z 18006KT 20/15 A2995 RMK A01 T01950147  RH  074%=      5-min Rain = 0
KLO1 250944Z 18006KT 20/15 A2995 RMK A01 T01950147  RH  074%=      5-min Rain = 0
KLO1 250945Z 18006KT 20/15 A2995 RMK A01 T01950147  RH  074%=      5-min Rain = 0
KLO1 250946Z 18006KT 20/15 A2996 RMK A01 T01950147  RH  074%=      5-min Rain = 0
KLO1 250947Z 18007KT 20/15 A2996 RMK A01 T01950147  RH  074%=      5-min Rain = 0
KLO1 250948Z 18006KT 20/15 A2996 RMK A01 T01950147  RH  074%=      5-min Rain = 0
KLO1 250949Z 18007KT 20/15 A2996 RMK A01 T01950147  RH  074%=      5-min Rain = 0
KLO1 250950Z 18007KT 20/15 A2996 RMK A01 T01950148  RH  074%=      5-min Rain = 0
KLO1 250951Z 18008KT 20/15 A2996 RMK A01 T01950148  RH  074%=      5-min Rain = 0
KLO1 250952Z 18007KT 20/15 A2996 RMK A01 T01950148  RH  074%=      5-min Rain = 0
KLO1 250953Z 18008KT 20/15 A2996 RMK A01 T01950148  RH  074%=      5-min Rain = 0
KLO1 250954Z 19008KT 20/15 A2996 RMK A01 T01950147  RH  074%=      5-min Rain = 0
KLO1 250955Z 19008KT 20/15 A2996 RMK A01 T01950148  RH  074%=      5-min Rain = 0
KLO1 250956Z 19008KT 20/15 A2996 RMK A01 T01950147  RH  074%=      5-min Rain = 0
KLO1 250957Z 19007KT 20/15 A2996 RMK A01 T01950148  RH  074%=      5-min Rain = 0
KLO1 250958Z 19009KT 20/15 A2996 RMK A01 T01950148  RH  074%=      5-min Rain = 0
KLO1 250959Z 19008KT 20/15 A2996 RMK A01 T01950148  RH  074%=      5-min Rain = 0
KLO1 251000Z 18007KT 20/15 A2996 RMK A01 T01950148  RH  074%=      5-min Rain = 0
KLO1 251001Z 19009KT 20/15 A2996 RMK A01 T01950148  RH  074%=      5-min Rain = 0
KLO1 251002Z 19008KT 20/15 A2996 RMK A01 T01950148  RH  074%=      5-min Rain = 0
KLO1 251003Z 19009KT 20/15 A2996 RMK A01 T01950148  RH  074%=      5-min Rain = 0
KLO1 251004Z 19008KT 20/15 A2996 RMK A01 T01950148  RH  074%=      5-min Rain = 0
KLO1 251005Z 19009KT 20/15 A2996 RMK A01 T01950148  RH  074%=      5-min Rain = 0
KLO1 251006Z 19011KT 20/15 A2996 RMK A01 T01950148  RH  074%=      5-min Rain = 0
KLO1 251007Z 19010KT 20/15 A2996 RMK A01 T01960148  RH  074%=      5-min Rain = 0
KLO1 251008Z 20011KT 20/15 A2996 RMK A01 T01960148  RH  074%=      5-min Rain = 0
KLO1 251009Z 20010KT 20/15 A2996 RMK A01 T01960148  RH  074%=      5-min Rain = 0
KLO1 251010Z 20009KT 20/15 A2996 RMK A01 T01960149  RH  074%=      5-min Rain = 0
KLO1 251011Z 20009KT 20/15 A2995 RMK A01 T01960148  RH  074%=      5-min Rain = 0
KLO1 251012Z 20010KT 20/15 A2996 RMK A01 T01960149  RH  074%=      5-min Rain = 0
KLO1 251013Z 20008KT 20/15 A2996 RMK A01 T01950148  RH  074%=      5-min Rain = 0
KLO1 251014Z 20009KT 20/15 A2996 RMK A01 T01950149  RH  074%=      5-min Rain = 0
KLO1 251015Z 20010KT 20/15 A2996 RMK A01 T01950149  RH  075%=      5-min Rain = 0
KLO1 251016Z 20009KT 20/15 A2996 RMK A01 T01950149  RH  075%=      5-min Rain = 0
KLO1 251017Z 20009KT 20/15 A2996 RMK A01 T01950149  RH  074%=      5-min Rain = 0
KLO1 251018Z 20009KT 20/15 A2996 RMK A01 T01950149  RH  075%=      5-min Rain = 0
KLO1 251019Z 20008KT 20/15 A2996 RMK A01 T01950149  RH  075%=      5-min Rain = 0
KLO1 251020Z 20009KT 20/15 A2996 RMK A01 T01950149  RH  075%=      5-min Rain = 0
KLO1 251021Z 20008KT 20/15 A2996 RMK A01 T01950149  RH  075%=      5-min Rain = 0
KLO1 251022Z 20009KT 20/15 A2996 RMK A01 T01950149  RH  075%=      5-min Rain = 0
KLO1 251023Z 20009KT 20/15 A2996 RMK A01 T01950149  RH  075%=      5-min Rain = 0
KLO1 251024Z 20009KT 20/15 A2996 RMK A01 T01950149  RH  074%=      5-min Rain = 0
KLO1 251025Z 20009KT 20/15 A2996 RMK A01 T01950149  RH  074%=      5-min Rain = 0
KLO1 251026Z 20008KT 20/15 A2996 RMK A01 T01960149  RH  074%=      5-min Rain = 0
KLO1 251027Z 20008KT 20/15 A2996 RMK A01 T01960149  RH  074%=      5-min Rain = 0
KLO1 251028Z 20008KT 20/15 A2997 RMK A01 T01960149  RH  074%=      5-min Rain = 0
KLO1 251029Z 20008KT 20/15 A2997 RMK A01 T01950149  RH  074%=      5-min Rain = 0
KLO1 251030Z 20008KT 20/15 A2997 RMK A01 T01950149  RH  074%=      5-min Rain = 0
KLO1 251031Z 20010KT 20/15 A2997 RMK A01 T01950149  RH  074%=      5-min Rain = 0
KLO1 251032Z 21009KT 20/15 A2997 RMK A01 T01950149  RH  074%=      5-min Rain = 0
KLO1 251033Z 20008KT 20/15 A2997 RMK A01 T01960149  RH  074%=      5-min Rain = 0
KLO1 251034Z 20010KT 20/15 A2997 RMK A01 T01950148  RH  074%=      5-min Rain = 0
KLO1 251035Z 20009KT 20/15 A2997 RMK A01 T01960148  RH  074%=      5-min Rain = 0
KLO1 251036Z 20010KT 20/15 A2997 RMK A01 T01960148  RH  074%=      5-min Rain = 0
KLO1 251037Z 20009KT 20/15 A2997 RMK A01 T01960148  RH  074%=      5-min Rain = 0
KLO1 251038Z 20008KT 20/15 A2997 RMK A01 T01960148  RH  074%=      5-min Rain = 0
KLO1 251039Z 20008KT 20/15 A2997 RMK A01 T01960148  RH  074%=      5-min Rain = 0
KLO1 251040Z 20007KT 20/15 A2997 RMK A01 T01960148  RH  074%=      5-min Rain = 0
KLO1 251041Z 20007KT 20/15 A2997 RMK A01 T01960149  RH  074%=      5-min Rain = 0
KLO1 251042Z 20009KT 20/15 A2997 RMK A01 T01960148  RH  074%=      5-min Rain = 0
KLO1 251043Z 20009KT 20/15 A2997 RMK A01 T01960148  RH  074%=      5-min Rain = 0
KLO1 251044Z 20008KT 20/15 A2997 RMK A01 T01960148  RH  074%=      5-min Rain = 0
KLO1 251045Z 20008KT 20/15 A2997 RMK A01 T01960148  RH  074%=      5-min Rain = 0
KLO1 251046Z 20008KT 20/15 A2997 RMK A01 T01960148  RH  074%=      5-min Rain = 0
KLO1 251047Z 20009KT 20/15 A2997 RMK A01 T01960148  RH  074%=      5-min Rain = 0
KLO1 251048Z 20008KT 20/15 A2997 RMK A01 T01960148  RH  074%=      5-min Rain = 0
KLO1 251049Z 20008KT 20/15 A2997 RMK A01 T01960148  RH  074%=      5-min Rain = 0
KLO1 251050Z 20009KT 20/15 A2997 RMK A01 T01960148  RH  074%=      5-min Rain = 0
KLO1 251051Z 20008KT 20/15 A2997 RMK A01 T01960148  RH  074%=      5-min Rain = 0
KLO1 251052Z 20008KT 20/15 A2997 RMK A01 T01960148  RH  074%=      5-min Rain = 0
KLO1 251053Z 20008KT 20/15 A2997 RMK A01 T01960148  RH  074%=      5-min Rain = 0
KLO1 251054Z 20008KT 20/15 A2997 RMK A01 T01960148  RH  074%=      5-min Rain = 0
KLO1 251055Z 20007KT 20/15 A2997 RMK A01 T01960148  RH  074%=      5-min Rain = 0
KLO1 251056Z 21007KT 20/15 A2997 RMK A01 T01960148  RH  074%=      5-min Rain = 0
KLO1 251057Z 20007KT 20/15 A2997 RMK A01 T01960148  RH  074%=      5-min Rain = 0
KLO1 251058Z 20006KT 20/15 A2997 RMK A01 T01960148  RH  074%=      5-min Rain = 0
KLO1 251059Z 20007KT 20/15 A2997 RMK A01 T01950148  RH  074%=      5-min Rain = 0
KLO1 251100Z 20006KT 20/15 A2997 RMK A01 T01950148  RH  074%=      5-min Rain = 0
KLO1 251101Z 19007KT 20/15 A2997 RMK A01 T01950148  RH  074%=      5-min Rain = 0
KLO1 251102Z 19007KT 20/15 A2997 RMK A01 T01950148  RH  074%=      5-min Rain = 0
KLO1 251103Z 20007KT 20/15 A2997 RMK A01 T01950147  RH  074%=      5-min Rain = 0
KLO1 251104Z 20008KT 20/15 A2997 RMK A01 T01950147  RH  074%=      5-min Rain = 0
KLO1 251105Z 20008KT 20/15 A2997 RMK A01 T01960147  RH  074%=      5-min Rain = 0
KLO1 251106Z 20006KT 20/15 A2997 RMK A01 T01960147  RH  073%=      5-min Rain = 0
KLO1 251107Z 20007KT 20/15 A2997 RMK A01 T01960147  RH  073%=      5-min Rain = 0
KLO1 251108Z 20007KT 20/15 A2997 RMK A01 T01960147  RH  073%=      5-min Rain = 0
KLO1 251109Z 19006KT 20/15 A2997 RMK A01 T01960147  RH  073%=      5-min Rain = 0
KLO1 251110Z 20006KT 20/15 A2997 RMK A01 T01960147  RH  073%=      5-min Rain = 0
KLO1 251111Z 20006KT 20/15 A2997 RMK A01 T01960147  RH  073%=      5-min Rain = 0
KLO1 251112Z 20007KT 20/15 A2997 RMK A01 T01960148  RH  073%=      5-min Rain = 0
KLO1 251113Z 19008KT 20/15 A2998 RMK A01 T01960148  RH  073%=      5-min Rain = 0
KLO1 251114Z 20008KT 20/15 A2998 RMK A01 T01960147  RH  073%=      5-min Rain = 0
KLO1 251115Z 19008KT 20/15 A2998 RMK A01 T01970147  RH  073%=      5-min Rain = 0
KLO1 251116Z 20008KT 20/15 A2998 RMK A01 T01970147  RH  073%=      5-min Rain = 0
KLO1 251117Z 19008KT 20/15 A2998 RMK A01 T01970147  RH  073%=      5-min Rain = 0
KLO1 251118Z 20008KT 20/15 A2998 RMK A01 T01970148  RH  073%=      5-min Rain = 0
KLO1 251119Z 20007KT 20/15 A2998 RMK A01 T01970148  RH  073%=      5-min Rain = 0
KLO1 251120Z 20007KT 20/15 A2998 RMK A01 T01970147  RH  073%=      5-min Rain = 0
KLO1 251121Z 20009KT 20/15 A2998 RMK A01 T01970148  RH  073%=      5-min Rain = 0
KLO1 251122Z 20008KT 20/15 A2998 RMK A01 T01970148  RH  073%=      5-min Rain = 0
KLO1 251123Z 20009KT 20/15 A2998 RMK A01 T01980148  RH  073%=      5-min Rain = 0
KLO1 251124Z 21008KT 20/15 A2998 RMK A01 T01970148  RH  073%=      5-min Rain = 0
KLO1 251125Z 21009KT 20/15 A2998 RMK A01 T01970148  RH  073%=      5-min Rain = 0
KLO1 251126Z 21009KT 20/15 A2998 RMK A01 T01980148  RH  073%=      5-min Rain = 0
KLO1 251127Z 21009KT 20/15 A2998 RMK A01 T01980148  RH  073%=      5-min Rain = 0
KLO1 251128Z 20008KT 20/15 A2998 RMK A01 T01980148  RH  073%=      5-min Rain = 0
KLO1 251129Z 21010KT 20/15 A2998 RMK A01 T01980149  RH  073%=      5-min Rain = 0
KLO1 251130Z 20011KT 20/15 A2998 RMK A01 T01980149  RH  073%=      5-min Rain = 0
KLO1 251131Z 20010KT 20/15 A2998 RMK A01 T01990149  RH  073%=      5-min Rain = 0
KLO1 251132Z 20009KT 20/15 A2998 RMK A01 T02000149  RH  073%=      5-min Rain = 0
KLO1 251133Z 21010KT 20/15 A2998 RMK A01 T02000149  RH  073%=      5-min Rain = 0
KLO1 251134Z 21010KT 20/15 A2998 RMK A01 T02000149  RH  073%=      5-min Rain = 0
KLO1 251135Z 21009KT 20/15 A2998 RMK A01 T02000149  RH  073%=      5-min Rain = 0
KLO1 251136Z 20009KT 20/15 A2998 RMK A01 T02000150  RH  073%=      5-min Rain = 0
KLO1 251137Z 21009KT 20/15 A2998 RMK A01 T02000150  RH  073%=      5-min Rain = 0
KLO1 251138Z 21009KT 20/15 A2998 RMK A01 T02000150  RH  073%=      5-min Rain = 0
KLO1 251139Z 21008KT 20/15 A2998 RMK A01 T01990150  RH  073%=      5-min Rain = 0
KLO1 251140Z 21008KT 20/15 A2998 RMK A01 T01990150  RH  073%=      5-min Rain = 0
KLO1 251141Z 21007KT 20/15 A2998 RMK A01 T01990150  RH  073%=      5-min Rain = 0
KLO1 251142Z 21009KT 20/15 A2998 RMK A01 T01990150  RH  073%=      5-min Rain = 0
KLO1 251143Z 21011KT 20/15 A2998 RMK A01 T02000150  RH  073%=      5-min Rain = 0
KLO1 251144Z 21009KT 20/15 A2999 RMK A01 T02000150  RH  073%=      5-min Rain = 0
KLO1 251145Z 21011KT 20/15 A2998 RMK A01 T02010150  RH  073%=      5-min Rain = 0
KLO1 251146Z 21010KT 20/15 A2999 RMK A01 T02010150  RH  073%=      5-min Rain = 0
KLO1 251147Z 21010KT 20/15 A2998 RMK A01 T02010150  RH  073%=      5-min Rain = 0
KLO1 251148Z 21009KT 20/15 A2998 RMK A01 T02010150  RH  073%=      5-min Rain = 0
KLO1 251149Z 21010KT 20/15 A2998 RMK A01 T02010151  RH  073%=      5-min Rain = 0
KLO1 251150Z 22009KT 20/15 A2998 RMK A01 T02010151  RH  073%=      5-min Rain = 0
KLO1 251151Z 21008KT 20/15 A2999 RMK A01 T02010151  RH  073%=      5-min Rain = 0
KLO1 251152Z 22008KT 20/15 A2999 RMK A01 T02010151  RH  073%=      5-min Rain = 0
KLO1 251153Z 22008KT 20/15 A2999 RMK A01 T02010150  RH  073%=      5-min Rain = 0
KLO1 251154Z 22008KT 20/15 A2999 RMK A01 T02000150  RH  073%=      5-min Rain = 0
KLO1 251155Z 22007KT 20/15 A2999 RMK A01 T02000150  RH  073%=      5-min Rain = 0
KLO1 251156Z 22009KT 20/15 A2999 RMK A01 T02000150  RH  073%=      5-min Rain = 0
KLO1 251157Z 22008KT 20/15 A2999 RMK A01 T02000150  RH  073%=      5-min Rain = 0
KLO1 251158Z 22009KT 20/15 A2999 RMK A01 T02000150  RH  073%=      5-min Rain = 0
KLO1 251159Z 22009KT 20/15 A2999 RMK A01 T02000150  RH  073%=      5-min Rain = 0
KLO1 251200Z 22009KT 20/15 A2999 RMK A01 T02000150  RH  073%=      5-min Rain = 0
KLO1 251201Z 22008KT 20/15 A2999 RMK A01 T02000150  RH  073%=      5-min Rain = 0
KLO1 251202Z 22009KT 20/15 A2999 RMK A01 T02000150  RH  073%=      5-min Rain = 0
KLO1 251203Z 21008KT 20/15 A2999 RMK A01 T02000150  RH  073%=      5-min Rain = 0
KLO1 251204Z 22006KT 20/15 A2999 RMK A01 T02000150  RH  073%=      5-min Rain = 0
KLO1 251205Z 21007KT 20/15 A2999 RMK A01 T02000150  RH  073%=      5-min Rain = 0
KLO1 251206Z 21007KT 20/15 A2999 RMK A01 T02000150  RH  073%=      5-min Rain = 0
KLO1 251207Z 21008KT 20/15 A2999 RMK A01 T02000150  RH  073%=      5-min Rain = 0
KLO1 251208Z 22008KT 20/15 A2999 RMK A01 T02000150  RH  073%=      5-min Rain = 0
KLO1 251209Z 22008KT 20/15 A2999 RMK A01 T02000150  RH  073%=      5-min Rain = 0
KLO1 251210Z 21007KT 20/15 A2999 RMK A01 T02000150  RH  073%=      5-min Rain = 0
KLO1 251211Z 22007KT 20/15 A2999 RMK A01 T02000151  RH  073%=      5-min Rain = 0
KLO1 251212Z 22007KT 20/15 A2999 RMK A01 T02000151  RH  073%=      5-min Rain = 0
KLO1 251213Z 21008KT 20/15 A2999 RMK A01 T02010151  RH  073%=      5-min Rain = 0
KLO1 251214Z 21007KT 20/15 A2999 RMK A01 T02010151  RH  073%=      5-min Rain = 0
KLO1 251215Z 21008KT 20/15 A2999 RMK A01 T02010151  RH  073%=      5-min Rain = 0
KLO1 251216Z 21008KT 20/15 A2999 RMK A01 T02010151  RH  073%=      5-min Rain = 0
KLO1 251217Z 21007KT 20/15 A2999 RMK A01 T02020151  RH  073%=      5-min Rain = 0
KLO1 251218Z 20007KT 20/15 A2999 RMK A01 T02020151  RH  073%=      5-min Rain = 0
KLO1 251219Z 21006KT 20/15 A2999 RMK A01 T02020151  RH  073%=      5-min Rain = 0
KLO1 251220Z 21007KT 20/15 A2999 RMK A01 T02020152  RH  073%=      5-min Rain = 0
KLO1 251221Z 21006KT 20/15 A30 RMK A01 T02020152  RH  073%=      5-min Rain = 0
KLO1 251222Z 21008KT 20/15 A2999 RMK A01 T02020152  RH  073%=      5-min Rain = 0
KLO1 251223Z 20007KT 20/15 A2999 RMK A01 T02030152  RH  072%=      5-min Rain = 0
KLO1 251224Z 21007KT 20/15 A2999 RMK A01 T02030152  RH  072%=      5-min Rain = 0
KLO1 251225Z 21007KT 20/15 A2999 RMK A01 T02040152  RH  072%=      5-min Rain = 0
KLO1 251226Z 21007KT 20/15 A2999 RMK A01 T02040152  RH  072%=      5-min Rain = 0
KLO1 251227Z 22008KT 21/15 A2999 RMK A01 T02050152  RH  072%=      5-min Rain = 0
KLO1 251228Z 21006KT 21/15 A2999 RMK A01 T02050152  RH  072%=      5-min Rain = 0
KLO1 251229Z 21006KT 21/15 A2999 RMK A01 T02050152  RH  072%=      5-min Rain = 0
KLO1 251230Z 21007KT 21/15 A2999 RMK A01 T02050152  RH  072%=      5-min Rain = 0
KLO1 251231Z 21007KT 21/15 A2999 RMK A01 T02050152  RH  071%=      5-min Rain = 0
KLO1 251232Z 21007KT 21/15 A2999 RMK A01 T02060152  RH  071%=      5-min Rain = 0
KLO1 251233Z 21008KT 21/15 A30 RMK A01 T02060153  RH  071%=      5-min Rain = 0
KLO1 251234Z 21008KT 21/15 A30 RMK A01 T02070153  RH  071%=      5-min Rain = 0
KLO1 251235Z 21007KT 21/15 A30 RMK A01 T02070153  RH  071%=      5-min Rain = 0
KLO1 251236Z 21008KT 21/15 A30 RMK A01 T02080153  RH  071%=      5-min Rain = 0
KLO1 251237Z 21007KT 21/15 A30 RMK A01 T02080153  RH  071%=      5-min Rain = 0
KLO1 251238Z 21008KT 21/15 A30 RMK A01 T02080153  RH  071%=      5-min Rain = 0
KLO1 251239Z 21007KT 21/15 A30 RMK A01 T02090154  RH  071%=      5-min Rain = 0
KLO1 251240Z 21008KT 21/15 A2999 RMK A01 T02090154  RH  070%=      5-min Rain = 0
KLO1 251241Z 21009KT 21/15 A2999 RMK A01 T02090153  RH  070%=      5-min Rain = 0
KLO1 251242Z 21009KT 21/15 A2999 RMK A01 T02100153  RH  070%=      5-min Rain = 0
KLO1 251243Z 21008KT 21/15 A2999 RMK A01 T02110154  RH  070%=      5-min Rain = 0
KLO1 251244Z 21008KT 21/15 A2999 RMK A01 T02110154  RH  070%=      5-min Rain = 0
KLO1 251245Z 21009KT 21/15 A2999 RMK A01 T02110154  RH  070%=      5-min Rain = 0
KLO1 251246Z 20011KT 21/15 A2999 RMK A01 T02110154  RH  069%=      5-min Rain = 0
KLO1 251247Z 21009KT 21/15 A2999 RMK A01 T02120154  RH  069%=      5-min Rain = 0
KLO1 251248Z 21008KT 21/15 A2999 RMK A01 T02120154  RH  069%=      5-min Rain = 0
KLO1 251249Z 21008KT 21/15 A2999 RMK A01 T02130154  RH  069%=      5-min Rain = 0
KLO1 251250Z 20010KT 21/15 A2999 RMK A01 T02130154  RH  069%=      5-min Rain = 0
KLO1 251251Z 21010KT 21/15 A2999 RMK A01 T02130154  RH  069%=      5-min Rain = 0
KLO1 251252Z 21009KT 21/16 A2999 RMK A01 T02140155  RH  069%=      5-min Rain = 0
KLO1 251253Z 21010KT 21/16 A2999 RMK A01 T02140155  RH  069%=      5-min Rain = 0
KLO1 251254Z 21011KT 21/16 A2999 RMK A01 T02140155  RH  069%=      5-min Rain = 0
KLO1 251255Z 20009KT 22/16 A2999 RMK A01 T02150155  RH  069%=      5-min Rain = 0
KLO1 251256Z 20010KT 22/16 A2999 RMK A01 T02160155  RH  068%=      5-min Rain = 0
KLO1 251257Z 21011KT 22/16 A2999 RMK A01 T02170156  RH  068%=      5-min Rain = 0
KLO1 251258Z 21010KT 22/16 A2999 RMK A01 T02170156  RH  068%=      5-min Rain = 0
KLO1 251259Z 21011KT 22/16 A2999 RMK A01 T02170156  RH  068%=      5-min Rain = 0
KLO1 251300Z 20009KT 22/16 A2999 RMK A01 T02180156  RH  068%=      5-min Rain = 0
KLO1 251301Z 21012KT 22/16 A2999 RMK A01 T02180156  RH  068%=      5-min Rain = 0
KLO1 251302Z 21012KT 22/16 A2999 RMK A01 T02190156  RH  068%=      5-min Rain = 0
KLO1 251303Z 21010KT 22/16 A2999 RMK A01 T02190157  RH  068%=      5-min Rain = 0
KLO1 251304Z 21009KT 22/16 A2999 RMK A01 T02200157  RH  067%=      5-min Rain = 0
KLO1 251305Z 21012KT 22/16 A2999 RMK A01 T02210158  RH  067%=      5-min Rain = 0
KLO1 251306Z 21012KT 22/16 A2999 RMK A01 T02210158  RH  067%=      5-min Rain = 0
KLO1 251307Z 22013KT 22/16 A2999 RMK A01 T02220159  RH  067%=      5-min Rain = 0
KLO1 251308Z 22013KT 22/16 A2999 RMK A01 T02230158  RH  067%=      5-min Rain = 0
KLO1 251309Z 21014KT 22/16 A2999 RMK A01 T02240159  RH  067%=      5-min Rain = 0
KLO1 251310Z 21013KT 23/16 A2999 RMK A01 T02250160  RH  067%=      5-min Rain = 0
KLO1 251311Z 22014KT 23/16 A30 RMK A01 T02260160  RH  066%=      5-min Rain = 0
KLO1 251312Z 22011KT 23/16 A30 RMK A01 T02260160  RH  066%=      5-min Rain = 0
KLO1 251313Z 22016KT 23/16 A30 RMK A01 T02260160  RH  066%=      5-min Rain = 0
KLO1 251314Z 21013KT 23/16 A30 RMK A01 T02260160  RH  066%=      5-min Rain = 0
KLO1 251315Z 22011KT 23/16 A30 RMK A01 T02270161  RH  066%=      5-min Rain = 0
KLO1 251316Z 22014KT 23/16 A30 RMK A01 T02280161  RH  066%=      5-min Rain = 0
KLO1 251317Z 22015KT 23/16 A30 RMK A01 T02290161  RH  066%=      5-min Rain = 0
KLO1 251318Z 22012KT 23/16 A30 RMK A01 T02290161  RH  066%=      5-min Rain = 0
KLO1 251319Z 22015KT 23/16 A2999 RMK A01 T02290161  RH  066%=      5-min Rain = 0
KLO1 251320Z 21017KT 23/16 A2999 RMK A01 T02290161  RH  066%=      5-min Rain = 0
KLO1 251321Z 22016KT 23/16 A2999 RMK A01 T02290161  RH  066%=      5-min Rain = 0
KLO1 251322Z 21019KT 23/16 A2999 RMK A01 T02290161  RH  066%=      5-min Rain = 0
KLO1 251323Z 21018KT 23/16 A2999 RMK A01 T02290161  RH  066%=      5-min Rain = 0
KLO1 251324Z 21015KT 23/16 A2999 RMK A01 T02290161  RH  066%=      5-min Rain = 0
KLO1 251325Z 22015KT 23/16 A2999 RMK A01 T02290162  RH  066%=      5-min Rain = 0
KLO1 251326Z 22017KT 23/16 A2999 RMK A01 T02300162  RH  065%=      5-min Rain = 0
KLO1 251327Z 22015KT 23/16 A2999 RMK A01 T02310162  RH  065%=      5-min Rain = 0
KLO1 251328Z 22017KT 23/16 A2999 RMK A01 T02310162  RH  065%=      5-min Rain = 0
KLO1 251329Z 21017KT 23/16 A2999 RMK A01 T02310162  RH  065%=      5-min Rain = 0
KLO1 251330Z 21014KT 23/16 A2999 RMK A01 T02310162  RH  065%=      5-min Rain = 0
KLO1 251331Z 21015KT 23/16 A2999 RMK A01 T02320163  RH  065%=      5-min Rain = 0
KLO1 251332Z 21017KT 23/16 A2999 RMK A01 T02330163  RH  065%=      5-min Rain = 0
KLO1 251333Z 21015KT 23/16 A2999 RMK A01 T02330163  RH  065%=      5-min Rain = 0
KLO1 251334Z 22013KT 23/16 A2999 RMK A01 T02330163  RH  065%=      5-min Rain = 0
KLO1 251335Z 21017KT 24/16 A2999 RMK A01 T02350164  RH  064%=      5-min Rain = 0
KLO1 251336Z 22014KT 24/16 A2999 RMK A01 T02360164  RH  064%=      5-min Rain = 0
KLO1 251337Z 22016KT 24/16 A2999 RMK A01 T02360164  RH  064%=      5-min Rain = 0
KLO1 251338Z 22012KT 24/16 A2999 RMK A01 T02360164  RH  064%=      5-min Rain = 0
KLO1 251339Z 21018KT 24/16 A2999 RMK A01 T02370164  RH  064%=      5-min Rain = 0
KLO1 251340Z 22013KT 24/17 A2999 RMK A01 T02370165  RH  064%=      5-min Rain = 0
KLO1 251341Z 22014KT 24/17 A2999 RMK A01 T02370165  RH  064%=      5-min Rain = 0
KLO1 251342Z 22015KT 24/17 A2999 RMK A01 T02380165  RH  064%=      5-min Rain = 0
KLO1 251343Z 22015KT 24/17 A2999 RMK A01 T02390166  RH  064%=      5-min Rain = 0
KLO1 251344Z 22013KT 24/17 A2999 RMK A01 T02390166  RH  064%=      5-min Rain = 0
KLO1 251345Z 22016KT 24/17 A2999 RMK A01 T02400166  RH  063%=      5-min Rain = 0
KLO1 251346Z 21018KT 24/17 A2999 RMK A01 T02400166  RH  063%=      5-min Rain = 0
KLO1 251347Z 21017KT 24/17 A2999 RMK A01 T02400166  RH  063%=      5-min Rain = 0
KLO1 251348Z 21015KT 24/17 A30 RMK A01 T02400166  RH  063%=      5-min Rain = 0
KLO1 251349Z 21016KT 24/17 A30 RMK A01 T02410167  RH  063%=      5-min Rain = 0
KLO1 251350Z 21012KT 24/17 A30 RMK A01 T02410166  RH  063%=      5-min Rain = 0
KLO1 251351Z 22017KT 24/17 A30 RMK A01 T02430167  RH  063%=      5-min Rain = 0
KLO1 251352Z 22017KT 24/17 A30 RMK A01 T02430166  RH  062%=      5-min Rain = 0
KLO1 251353Z 22016KT 24/17 A30 RMK A01 T02420167  RH  063%=      5-min Rain = 0
KLO1 251354Z 22017G22KT 24/17 A30 RMK A01 T02430167  RH  062%=      5-min Rain = 0
KLO1 251355Z 22020KT 24/17 A30 RMK A01 T02440166  RH  062%=      5-min Rain = 0
KLO1 251356Z 22017KT 24/17 A30 RMK A01 T02440166  RH  062%=      5-min Rain = 0
KLO1 251357Z 21018KT 25/17 A30 RMK A01 T02450166  RH  062%=      5-min Rain = 0
KLO1 251358Z 22018KT 25/17 A30 RMK A01 T02450165  RH  061%=      5-min Rain = 0
KLO1 251359Z 22014KT 24/17 A30 RMK A01 T02440166  RH  062%=      5-min Rain = 0
KLO1 251400Z 22016KT 25/17 A30 RMK A01 T02450167  RH  062%=      5-min Rain = 0
KLO1 251401Z 21015KT 25/17 A30 RMK A01 T02460167  RH  061%=      5-min Rain = 0
KLO1 251402Z 22014G22KT 25/17 A30 RMK A01 T02460167  RH  061%=      5-min Rain = 0
KLO1 251403Z 22019KT 25/17 A30 RMK A01 T02480167  RH  061%=      5-min Rain = 0
KLO1 251404Z 22020KT 25/17 A30 RMK A01 T02480167  RH  061%=      5-min Rain = 0
KLO1 251405Z 22019KT 25/17 A30 RMK A01 T02480166  RH  060%=      5-min Rain = 0
KLO1 251406Z 22017KT 25/17 A30 RMK A01 T02480166  RH  060%=      5-min Rain = 0
KLO1 251407Z 22016KT 25/17 A30 RMK A01 T02480167  RH  061%=      5-min Rain = 0
KLO1 251408Z 22018KT 25/17 A30 RMK A01 T02480167  RH  061%=      5-min Rain = 0
KLO1 251409Z 21017KT 25/17 A30 RMK A01 T02480166  RH  060%=      5-min Rain = 0
KLO1 251410Z 22015KT 25/17 A30 RMK A01 T02490167  RH  060%=      5-min Rain = 0
KLO1 251411Z 20015KT 25/17 A30 RMK A01 T02500168  RH  060%=      5-min Rain = 0
KLO1 251412Z 21017KT 25/17 A30 RMK A01 T02510168  RH  060%=      5-min Rain = 0
KLO1 251413Z 21018KT 25/17 A30 RMK A01 T02510167  RH  059%=      5-min Rain = 0
KLO1 251414Z 21017G22KT 25/17 A30 RMK A01 T02510166  RH  059%=      5-min Rain = 0
KLO1 251415Z 22015KT 25/17 A30 RMK A01 T02520167  RH  059%=      5-min Rain = 0
KLO1 251416Z 22017KT 25/17 A30 RMK A01 T02530168  RH  059%=      5-min Rain = 0
KLO1 251417Z 21017KT 25/17 A30 RMK A01 T02530168  RH  059%=      5-min Rain = 0
KLO1 251418Z 22015KT 25/17 A30 RMK A01 T02530168  RH  059%=      5-min Rain = 0
KLO1 251419Z 21016KT 25/17 A30 RMK A01 T02530167  RH  059%=      5-min Rain = 0
KLO1 251420Z 21015KT 25/17 A30 RMK A01 T02530168  RH  059%=      5-min Rain = 0
KLO1 251421Z 21015KT 25/17 A30 RMK A01 T02540168  RH  059%=      5-min Rain = 0
KLO1 251422Z 22016KT 26/17 A30 RMK A01 T02550168  RH  059%=      5-min Rain = 0
KLO1 251423Z 22018KT 26/17 A3001 RMK A01 T02550168  RH  059%=      5-min Rain = 0
KLO1 251424Z 22016KT 26/17 A30 RMK A01 T02550167  RH  058%=      5-min Rain = 0
KLO1 251425Z 22017KT 26/17 A30 RMK A01 T02560167  RH  058%=      5-min Rain = 0
KLO1 251426Z 22016KT 26/17 A30 RMK A01 T02560167  RH  058%=      5-min Rain = 0
KLO1 251427Z 21017KT 26/17 A30 RMK A01 T02570167  RH  058%=      5-min Rain = 0
KLO1 251428Z 22016KT 26/17 A30 RMK A01 T02560167  RH  058%=      5-min Rain = 0
KLO1 251429Z 22018KT 26/17 A3001 RMK A01 T02570167  RH  057%=      5-min Rain = 0
KLO1 251430Z 22016KT 26/17 A3001 RMK A01 T02560166  RH  057%=      5-min Rain = 0
KLO1 251431Z 22015KT 26/17 A3001 RMK A01 T02560166  RH  058%=      5-min Rain = 0
KLO1 251432Z 22016KT 26/17 A30 RMK A01 T02580167  RH  057%=      5-min Rain = 0
KLO1 251433Z 22014KT 26/17 A30 RMK A01 T02580166  RH  057%=      5-min Rain = 0
KLO1 251434Z 22013KT 26/17 A30 RMK A01 T02600167  RH  057%=      5-min Rain = 0
KLO1 251435Z 21015G20KT 26/17 A30 RMK A01 T02620168  RH  056%=      5-min Rain = 0
KLO1 251436Z 21016KT 26/17 A30 RMK A01 T02630166  RH  055%=      5-min Rain = 0
KLO1 251437Z 21015KT 26/17 A30 RMK A01 T02610166  RH  056%=      5-min Rain = 0
KLO1 251438Z 21013KT 26/17 A30 RMK A01 T02610168  RH  057%=      5-min Rain = 0
KLO1 251439Z 22014KT 26/17 A30 RMK A01 T02630168  RH  056%=      5-min Rain = 0
KLO1 251440Z 21015KT 26/17 A30 RMK A01 T02640167  RH  055%=      5-min Rain = 0
KLO1 251441Z 21015KT 26/17 A30 RMK A01 T02630167  RH  055%=      5-min Rain = 0
KLO1 251442Z 21014KT 26/17 A30 RMK A01 T02630167  RH  056%=      5-min Rain = 0
KLO1 251443Z 20014KT 26/17 A30 RMK A01 T02640167  RH  055%=      5-min Rain = 0
KLO1 251444Z 22014KT 27/17 A30 RMK A01 T02650167  RH  055%=      5-min Rain = 0
KLO1 251445Z 22017KT 27/17 A30 RMK A01 T02650167  RH  055%=      5-min Rain = 0
KLO1 251446Z 21016KT 27/17 A30 RMK A01 T02650167  RH  055%=      5-min Rain = 0
KLO1 251447Z 21015KT 26/17 A3001 RMK A01 T02640166  RH  055%=      5-min Rain = 0
KLO1 251448Z 21013KT 26/17 A3001 RMK A01 T02630167  RH  056%=      5-min Rain = 0
KLO1 251449Z 21014KT 27/17 A3001 RMK A01 T02650167  RH  055%=      5-min Rain = 0
KLO1 251450Z 21014KT 27/17 A3001 RMK A01 T02650168  RH  055%=      5-min Rain = 0
KLO1 251451Z 21012KT 27/17 A3001 RMK A01 T02650168  RH  055%=      5-min Rain = 0
KLO1 251452Z 21016KT 27/17 A3001 RMK A01 T02670167  RH  054%=      5-min Rain = 0
KLO1 251453Z 21013KT 27/17 A3001 RMK A01 T02680168  RH  054%=      5-min Rain = 0
KLO1 251454Z 21013KT 27/17 A3001 RMK A01 T02690167  RH  054%=      5-min Rain = 0
KLO1 251455Z 22011KT 27/17 A3001 RMK A01 T02690168  RH  054%=      5-min Rain = 0
KLO1 251456Z 23012KT 27/17 A3001 RMK A01 T02710169  RH  053%=      5-min Rain = 0
KLO1 251457Z 23010KT 27/17 A3001 RMK A01 T02710168  RH  053%=      5-min Rain = 0
KLO1 251458Z 21010KT 27/17 A3001 RMK A01 T02700169  RH  054%=      5-min Rain = 0
KLO1 251459Z 21012KT 27/17 A30 RMK A01 T02710167  RH  053%=      5-min Rain = 0
KLO1 251500Z 21011KT 27/17 A3001 RMK A01 T02710168  RH  053%=      5-min Rain = 0
KLO1 251501Z 21011KT 27/17 A3001 RMK A01 T02720169  RH  053%=      5-min Rain = 0
KLO1 251502Z 20011KT 27/17 A30 RMK A01 T02730169  RH  053%=      5-min Rain = 0
KLO1 251503Z 21012KT 27/17 A3001 RMK A01 T02740168  RH  052%=      5-min Rain = 0
KLO1 251504Z 22013KT 27/17 A3001 RMK A01 T02730167  RH  052%=      5-min Rain = 0
KLO1 251505Z 22012KT 27/17 A3001 RMK A01 T02720167  RH  053%=      5-min Rain = 0
KLO1 251506Z 22011KT 27/17 A3001 RMK A01 T02720169  RH  053%=      5-min Rain = 0
KLO1 251507Z 22011KT 28/17 A3001 RMK A01 T02750169  RH  052%=      5-min Rain = 0
KLO1 251508Z 22010KT 28/17 A3001 RMK A01 T02760168  RH  052%=      5-min Rain = 0
KLO1 251509Z 22013KT 28/17 A3001 RMK A01 T02760168  RH  052%=      5-min Rain = 0
KLO1 251510Z 22012KT 28/17 A3001 RMK A01 T02750167  RH  052%=      5-min Rain = 0
KLO1 251511Z 21010KT 27/17 A3001 RMK A01 T02730167  RH  052%=      5-min Rain = 0
KLO1 251512Z 20010KT 27/17 A3001 RMK A01 T02740168  RH  052%=      5-min Rain = 0
KLO1 251513Z 22012KT 27/17 A3001 RMK A01 T02740167  RH  052%=      5-min Rain = 0
KLO1 251514Z 23012KT 27/17 A3001 RMK A01 T02740168  RH  052%=      5-min Rain = 0
KLO1 251515Z 23013KT 28/17 A30 RMK A01 T02760167  RH  052%=      5-min Rain = 0
KLO1 251516Z 22012KT 28/17 A3001 RMK A01 T02770168  RH  051%=      5-min Rain = 0
KLO1 251517Z 23011KT 28/17 A30 RMK A01 T02770167  RH  051%=      5-min Rain = 0
KLO1 251518Z 21010KT 28/17 A30 RMK A01 T02750167  RH  052%=      5-min Rain = 0
KLO1 251519Z 22012KT 28/17 A30 RMK A01 T02760167  RH  052%=      5-min Rain = 0
KLO1 251520Z 21013KT 28/17 A30 RMK A01 T02780167  RH  051%=      5-min Rain = 0
KLO1 251521Z 21012KT 28/17 A30 RMK A01 T02790166  RH  050%=      5-min Rain = 0
KLO1 251522Z 21011KT 28/17 A30 RMK A01 T02780165  RH  050%=      5-min Rain = 0
KLO1 251523Z 21011KT 28/17 A30 RMK A01 T02760166  RH  051%=      5-min Rain = 0
KLO1 251524Z 22012KT 28/17 A30 RMK A01 T02770166  RH  051%=      5-min Rain = 0
KLO1 251525Z 23012KT 28/17 A30 RMK A01 T02780166  RH  051%=      5-min Rain = 0
KLO1 251526Z 22012KT 28/17 A30 RMK A01 T02790166  RH  050%=      5-min Rain = 0
KLO1 251527Z 22012KT 28/17 A30 RMK A01 T02800166  RH  050%=      5-min Rain = 0
KLO1 251528Z 22010KT 28/17 A30 RMK A01 T02780165  RH  050%=      5-min Rain = 0
KLO1 251529Z 22008KT 28/17 A30 RMK A01 T02760165  RH  051%=      5-min Rain = 0
KLO1 251530Z 24011KT 28/17 A30 RMK A01 T02760167  RH  051%=      5-min Rain = 0
KLO1 251531Z 24011KT 28/17 A30 RMK A01 T02800168  RH  050%=      5-min Rain = 0
KLO1 251532Z 24011KT 28/17 A30 RMK A01 T02820168  RH  050%=      5-min Rain = 0
KLO1 251533Z 23009KT 28/17 A30 RMK A01 T02830167  RH  050%=      5-min Rain = 0
KLO1 251534Z 21012KT 28/17 A30 RMK A01 T02820168  RH  050%=      5-min Rain = 0
KLO1 251535Z 22010KT 28/17 A30 RMK A01 T02840168  RH  050%=      5-min Rain = 0
KLO1 251536Z 23011KT 29/17 A30 RMK A01 T02850168  RH  049%=      5-min Rain = 0
KLO1 251537Z 23013KT 29/17 A30 RMK A01 T02860167  RH  048%=      5-min Rain = 0
KLO1 251538Z 23011KT 28/17 A30 RMK A01 T02840166  RH  049%=      5-min Rain = 0
KLO1 251539Z 24012KT 29/17 A30 RMK A01 T02850167  RH  049%=      5-min Rain = 0
KLO1 251540Z 26011KT 29/17 A30 RMK A01 T02860168  RH  049%=      5-min Rain = 0
KLO1 251541Z 25009KT 29/17 A30 RMK A01 T02860168  RH  049%=      5-min Rain = 0
KLO1 251542Z 23010KT 29/17 A30 RMK A01 T02850170  RH  050%=      5-min Rain = 0
KLO1 251543Z 22012KT 29/17 A30 RMK A01 T02880167  RH  048%=      5-min Rain = 0
KLO1 251544Z 22013KT 29/17 A30 RMK A01 T02880166  RH  048%=      5-min Rain = 0
KLO1 251545Z 22013KT 29/17 A30 RMK A01 T02880165  RH  047%=      5-min Rain = 0
KLO1 251546Z 22012KT 29/17 A30 RMK A01 T02890165  RH  047%=      5-min Rain = 0
KLO1 251547Z 21012KT 29/17 A30 RMK A01 T02860165  RH  048%=      5-min Rain = 0
KLO1 251548Z 20009KT 29/17 A30 RMK A01 T02850165  RH  048%=      5-min Rain = 0
KLO1 251549Z 22008KT 29/17 A30 RMK A01 T02850167  RH  049%=      5-min Rain = 0
KLO1 251550Z 23011KT 29/17 A30 RMK A01 T02880167  RH  048%=      5-min Rain = 0
KLO1 251551Z 22010KT 29/17 A30 RMK A01 T02880166  RH  048%=      5-min Rain = 0
KLO1 251552Z 22008KT 29/17 A30 RMK A01 T02870165  RH  048%=      5-min Rain = 0
KLO1 251553Z 23010KT 29/17 A30 RMK A01 T02850167  RH  049%=      5-min Rain = 0
KLO1 251554Z 24013KT 29/17 A30 RMK A01 T02880167  RH  048%=      5-min Rain = 0
KLO1 251555Z 24008KT 29/17 A30 RMK A01 T02880166  RH  048%=      5-min Rain = 0
KLO1 251556Z 25009KT 29/17 A30 RMK A01 T02850167  RH  049%=      5-min Rain = 0
KLO1 251557Z 22011KT 29/17 A30 RMK A01 T02890168  RH  048%=      5-min Rain = 0
KLO1 251558Z 21011KT 29/17 A30 RMK A01 T02920166  RH  047%=      5-min Rain = 0
KLO1 251559Z 22012KT 29/17 A30 RMK A01 T02920167  RH  047%=      5-min Rain = 0
KLO1 251600Z 23009KT 29/17 A30 RMK A01 T02920168  RH  047%=      5-min Rain = 0
KLO1 251601Z 25008KT 29/17 A30 RMK A01 T02920168  RH  047%=      5-min Rain = 0
KLO1 251602Z 24007KT 29/17 A30 RMK A01 T02910168  RH  047%=      5-min Rain = 0
KLO1 251603Z 23009KT 29/17 A30 RMK A01 T02900168  RH  048%=      5-min Rain = 0
KLO1 251604Z 21010KT 29/17 A30 RMK A01 T02910167  RH  047%=      5-min Rain = 0
KLO1 251605Z 23010KT 29/17 A30 RMK A01 T02920168  RH  047%=      5-min Rain = 0
KLO1 251606Z 23012KT 30/17 A30 RMK A01 T02960168  RH  046%=      5-min Rain = 0
KLO1 251607Z 22010KT 30/17 A30 RMK A01 T02960165  RH  045%=      5-min Rain = 0
KLO1 251608Z 21010KT 29/17 A30 RMK A01 T02920165  RH  046%=      5-min Rain = 0
KLO1 251609Z 21007KT 29/17 A30 RMK A01 T02910165  RH  047%=      5-min Rain = 0
KLO1 251610Z 21006KT 29/17 A30 RMK A01 T02900165  RH  047%=      5-min Rain = 0
KLO1 251611Z 22013KT 29/17 A30 RMK A01 T02910165  RH  047%=      5-min Rain = 0
KLO1 251612Z 22013KT 29/16 A30 RMK A01 T02930164  RH  046%=      5-min Rain = 0
KLO1 251613Z 22013KT 30/16 A30 RMK A01 T02950164  RH  045%=      5-min Rain = 0
KLO1 251614Z 22011KT 30/16 A30 RMK A01 T02950162  RH  045%=      5-min Rain = 0
KLO1 251615Z 21008KT 30/16 A30 RMK A01 T02950163  RH  045%=      5-min Rain = 0
KLO1 251616Z 19010KT 30/16 A30 RMK A01 T02960164  RH  045%=      5-min Rain = 0
KLO1 251617Z 19010KT 30/16 A30 RMK A01 T02960163  RH  045%=      5-min Rain = 0
KLO1 251618Z 20011KT 30/17 A30 RMK A01 T02950165  RH  045%=      5-min Rain = 0
KLO1 251619Z 21009KT 30/16 A30 RMK A01 T02960162  RH  044%=      5-min Rain = 0
KLO1 251620Z 20008KT 30/16 A30 RMK A01 T02960164  RH  045%=      5-min Rain = 0
KLO1 251621Z 19007KT 30/16 A30 RMK A01 T02980163  RH  044%=      5-min Rain = 0
KLO1 251622Z 18007KT 30/16 A30 RMK A01 T02960163  RH  045%=      5-min Rain = 0
KLO1 251623Z 20007KT 30/16 A30 RMK A01 T02960163  RH  045%=      5-min Rain = 0
KLO1 251624Z 20005KT 29/17 A30 RMK A01 T02940165  RH  046%=      5-min Rain = 0
KLO1 251625Z 23008KT 30/16 A30 RMK A01 T02950164  RH  045%=      5-min Rain = 0
KLO1 251626Z 23007KT 30/16 A30 RMK A01 T02960164  RH  045%=      5-min Rain = 0
KLO1 251627Z 21009KT 30/16 A30 RMK A01 T02970163  RH  044%=      5-min Rain = 0
KLO1 251628Z 21008KT 30/16 A30 RMK A01 T02990161  RH  043%=      5-min Rain = 0
KLO1 251629Z 22007KT 30/16 A30 RMK A01 T03010162  RH  043%=      5-min Rain = 0
KLO1 251630Z 21009KT 30/16 A30 RMK A01 T03030163  RH  043%=      5-min Rain = 0
KLO1 251631Z 22007KT 30/16 A30 RMK A01 T03040160  RH  042%=      5-min Rain = 0
KLO1 251632Z 22005KT 30/16 A30 RMK A01 T03020160  RH  042%=      5-min Rain = 0
KLO1 251633Z 20006KT 30/16 A30 RMK A01 T03020163  RH  043%=      5-min Rain = 0
KLO1 251634Z 19007KT 31/16 A30 RMK A01 T03050163  RH  042%=      5-min Rain = 0
KLO1 251635Z 21007KT 31/16 A30 RMK A01 T03050160  RH  042%=      5-min Rain = 0
KLO1 251636Z 21012KT 31/16 A30 RMK A01 T03050162  RH  042%=      5-min Rain = 0
KLO1 251637Z 21010KT 31/16 A30 RMK A01 T03070161  RH  041%=      5-min Rain = 0
KLO1 251638Z 21009KT 31/16 A30 RMK A01 T03070161  RH  041%=      5-min Rain = 0
KLO1 251639Z 21009KT 31/16 A30 RMK A01 T03060159  RH  041%=      5-min Rain = 0
KLO1 251640Z 22007KT 30/16 A30 RMK A01 T03030160  RH  042%=      5-min Rain = 0
KLO1 251641Z 20008KT 30/16 A30 RMK A01 T03030160  RH  042%=      5-min Rain = 0
KLO1 251642Z 18006G11KT 30/16 A30 RMK A01 T03040156  RH  041%=      5-min Rain = 0
KLO1 251643Z 18011KT 31/16 A30 RMK A01 T03060160  RH  041%=      5-min Rain = 0
KLO1 251644Z 19009KT 31/16 A30 RMK A01 T03080160  RH  041%=      5-min Rain = 0
KLO1 251645Z 20008KT 31/16 A30 RMK A01 T03050160  RH  042%=      5-min Rain = 0
KLO1 251646Z 19006KT 30/16 A30 RMK A01 T03040161  RH  042%=      5-min Rain = 0
KLO1 251647Z 19004KT 30/16 A30 RMK A01 T03040160  RH  042%=      5-min Rain = 0
KLO1 251648Z 17009KT 30/16 A30 RMK A01 T03040160  RH  042%=      5-min Rain = 0
KLO1 251649Z 17010KT 31/16 A3001 RMK A01 T03050158  RH  041%=      5-min Rain = 0
KLO1 251650Z 17011KT 31/16 A3001 RMK A01 T03060160  RH  041%=      5-min Rain = 0
KLO1 251651Z 17012KT 31/16 A3001 RMK A01 T03090159  RH  040%=      5-min Rain = 0
KLO1 251652Z 18008KT 31/16 A3001 RMK A01 T03090159  RH  040%=      5-min Rain = 0
KLO1 251653Z 15009KT 31/16 A3001 RMK A01 T03090157  RH  040%=      5-min Rain = 0
KLO1 251654Z 15010KT 31/16 A3001 RMK A01 T03090155  RH  039%=      5-min Rain = 0
KLO1 251655Z 14008KT 31/16 A3001 RMK A01 T03080155  RH  040%=      5-min Rain = 0
KLO1 251656Z 15008KT 31/16 A3001 RMK A01 T03090156  RH  040%=      5-min Rain = 0
KLO1 251657Z 15007KT 31/16 A3001 RMK A01 T03110156  RH  039%=      5-min Rain = 0
KLO1 251658Z 19010KT 31/16 A3001 RMK A01 T03130156  RH  039%=      5-min Rain = 0
KLO1 251659Z 19009KT 31/16 A3001 RMK A01 T03130156  RH  039%=      5-min Rain = 0
KLO1 251700Z 18008KT 31/16 A3001 RMK A01 T03130158  RH  039%=      5-min Rain = 0
KLO1 251701Z 16009KT 32/16 A3001 RMK A01 T03150158  RH  039%=      5-min Rain = 0
KLO1 251702Z 16008KT 32/16 A3001 RMK A01 T03160155  RH  038%=      5-min Rain = 0
KLO1 251703Z 15008KT 32/16 A3001 RMK A01 T03170156  RH  038%=      5-min Rain = 0
KLO1 251704Z 16009KT 32/16 A3001 RMK A01 T03180157  RH  038%=      5-min Rain = 0
KLO1 251705Z 18009KT 32/16 A3001 RMK A01 T03190158  RH  038%=      5-min Rain = 0
KLO1 251706Z 19010KT 32/16 A3001 RMK A01 T03190158  RH  038%=      5-min Rain = 0
KLO1 251707Z 20010KT 32/16 A3001 RMK A01 T03170157  RH  038%=      5-min Rain = 0
KLO1 251708Z 20008KT 32/16 A3001 RMK A01 T03170160  RH  039%=      5-min Rain = 0
KLO1 251709Z 15012KT 32/16 A3001 RMK A01 T03190158  RH  038%=      5-min Rain = 0
KLO1 251710Z 14010KT 32/16 A3001 RMK A01 T03180155  RH  037%=      5-min Rain = 0
KLO1 251711Z 16010KT 32/16 A3001 RMK A01 T03180156  RH  038%=      5-min Rain = 0
KLO1 251712Z 18009KT 32/16 A3001 RMK A01 T03190157  RH  038%=      5-min Rain = 0
KLO1 251713Z 17010KT 32/16 A3001 RMK A01 T03220155  RH  037%=      5-min Rain = 0
KLO1 251714Z 17010KT 32/15 A3001 RMK A01 T03220154  RH  036%=      5-min Rain = 0
KLO1 251715Z 17008KT 33/15 A3001 RMK A01 T03250154  RH  036%=      5-min Rain = 0
KLO1 251716Z 18007KT 32/15 A3001 RMK A01 T03240153  RH  036%=      5-min Rain = 0
KLO1 251717Z 16010KT 33/15 A3001 RMK A01 T03250151  RH  035%=      5-min Rain = 0
KLO1 251718Z 16013KT 32/15 A3001 RMK A01 T03240149  RH  035%=      5-min Rain = 0
KLO1 251719Z 17009KT 32/15 A3001 RMK A01 T03190148  RH  035%=      5-min Rain = 0
KLO1 251720Z 16007KT 32/15 A3001 RMK A01 T03180149  RH  036%=      5-min Rain = 0
KLO1 251721Z 19011G16KT 32/15 A30 RMK A01 T03180153  RH  037%=      5-min Rain = 0
KLO1 251722Z 18011KT 32/15 A3001 RMK A01 T03230153  RH  036%=      5-min Rain = 0
KLO1 251723Z 17010KT 33/15 A3001 RMK A01 T03250151  RH  035%=      5-min Rain = 0
KLO1 251724Z 15010KT 33/15 A3001 RMK A01 T03270150  RH  034%=      5-min Rain = 0
KLO1 251725Z 14010KT 33/15 A3001 RMK A01 T03250150  RH  035%=      5-min Rain = 0
KLO1 251726Z 14008KT 32/15 A3001 RMK A01 T03230150  RH  035%=      5-min Rain = 0
KLO1 251727Z 14008KT 32/15 A3001 RMK A01 T03230150  RH  035%=      5-min Rain = 0
KLO1 251728Z 14010KT 32/15 A3001 RMK A01 T03240153  RH  036%=      5-min Rain = 0
KLO1 251729Z 14012KT 33/16 A30 RMK A01 T03260155  RH  036%=      5-min Rain = 0
KLO1 251730Z 14012KT 33/16 A3001 RMK A01 T03280155  RH  035%=      5-min Rain = 0
KLO1 251731Z 13012KT 33/16 A30 RMK A01 T03280155  RH  035%=      5-min Rain = 0
KLO1 251732Z 13012KT 33/15 A30 RMK A01 T03270154  RH  035%=      5-min Rain = 0
KLO1 251733Z 13012G17KT 33/15 A30 RMK A01 T03260154  RH  035%=      5-min Rain = 0
KLO1 251734Z 16012KT 33/15 A30 RMK A01 T03270154  RH  035%=      5-min Rain = 0
KLO1 251735Z 15010G17KT 33/15 A30 RMK A01 T03280154  RH  035%=      5-min Rain = 0
KLO1 251736Z 14016KT 33/15 A30 RMK A01 T03290153  RH  035%=      5-min Rain = 0
KLO1 251737Z 15014KT 33/15 A3001 RMK A01 T03290151  RH  034%=      5-min Rain = 0
KLO1 251738Z 14012KT 33/15 A3001 RMK A01 T03260149  RH  034%=      5-min Rain = 0
KLO1 251739Z 15009KT 33/15 A3001 RMK A01 T03250149  RH  035%=      5-min Rain = 0
KLO1 251740Z 14010KT 33/15 A30 RMK A01 T03250152  RH  035%=      5-min Rain = 0
KLO1 251741Z 16012KT 33/15 A3001 RMK A01 T03270153  RH  035%=      5-min Rain = 0
KLO1 251742Z 16010KT 33/15 A3001 RMK A01 T03280151  RH  034%=      5-min Rain = 0
KLO1 251743Z 16013KT 32/15 A30 RMK A01 T03230149  RH  035%=      5-min Rain = 0
KLO1 251744Z 14013G18KT 32/15 A30 RMK A01 T03200150  RH  036%=      5-min Rain = 0
KLO1 251745Z 13012KT 32/15 A3001 RMK A01 T03210151  RH  036%=      5-min Rain = 0
KLO1 251746Z 13008KT 32/15 A30 RMK A01 T03220152  RH  036%=      5-min Rain = 0
KLO1 251747Z 12010KT 32/15 A30 RMK A01 T03230151  RH  035%=      5-min Rain = 0
KLO1 251748Z 13011KT 33/15 A30 RMK A01 T03260154  RH  036%=      5-min Rain = 0
KLO1 251749Z 14013KT 33/15 A30 RMK A01 T03310152  RH  034%=      5-min Rain = 0
KLO1 251750Z 16013KT 33/15 A30 RMK A01 T03320152  RH  034%=      5-min Rain = 0
KLO1 251751Z 17013KT 34/15 A30 RMK A01 T03350152  RH  033%=      5-min Rain = 0
KLO1 251752Z 15010KT 34/15 A30 RMK A01 T03350151  RH  033%=      5-min Rain = 0
KLO1 251753Z 14014KT 34/15 A30 RMK A01 T03350151  RH  033%=      5-min Rain = 0
KLO1 251754Z 14012KT 33/15 A30 RMK A01 T03340150  RH  033%=      5-min Rain = 0
KLO1 251755Z 16006KT 33/15 A30 RMK A01 T03310149  RH  033%=      5-min Rain = 0
KLO1 251756Z 16007G12KT 33/15 A30 RMK A01 T03280151  RH  034%=      5-min Rain = 0
KLO1 251757Z 15012KT 33/15 A30 RMK A01 T03310153  RH  034%=      5-min Rain = 0
KLO1 251758Z 15014KT 34/15 A30 RMK A01 T03370153  RH  033%=      5-min Rain = 0
KLO1 251759Z 15010KT 34/15 A30 RMK A01 T03370149  RH  032%=      5-min Rain = 0
KLO1 251800Z 15012KT 33/15 A30 RMK A01 T03320150  RH  033%=      5-min Rain = 0
KLO1 251801Z 15011KT 33/15 A30 RMK A01 T03330148  RH  033%=      5-min Rain = 0
KLO1 251802Z 14011KT 34/15 A30 RMK A01 T03350145  RH  032%=      5-min Rain = 0
KLO1 251803Z 16011KT 33/15 A30 RMK A01 T03330145  RH  032%=      5-min Rain = 0
KLO1 251804Z 18011KT 33/15 A30 RMK A01 T03340147  RH  033%=      5-min Rain = 0
KLO1 251805Z 19007KT 33/15 A30 RMK A01 T03330146  RH  033%=      5-min Rain = 0
KLO1 251806Z 16007KT 33/15 A30 RMK A01 T03300147  RH  033%=      5-min Rain = 0
KLO1 251807Z 17011G16KT 33/15 A30 RMK A01 T03290148  RH  034%=      5-min Rain = 0
KLO1 251808Z 17016KT 33/15 A30 RMK A01 T03310147  RH  033%=      5-min Rain = 0
KLO1 251809Z 17014KT 33/15 A30 RMK A01 T03310145  RH  033%=      5-min Rain = 0
KLO1 251810Z 17015KT 33/15 A30 RMK A01 T03310145  RH  033%=      5-min Rain = 0
KLO1 251811Z 17011KT 33/14 A30 RMK A01 T03310144  RH  032%=      5-min Rain = 0
KLO1 251812Z 16012KT 33/14 A30 RMK A01 T03300144  RH  033%=      5-min Rain = 0
KLO1 251813Z 15009KT 33/14 A30 RMK A01 T03300142  RH  032%=      5-min Rain = 0
KLO1 251814Z 14013KT 33/14 A30 RMK A01 T03310143  RH  032%=      5-min Rain = 0
KLO1 251815Z 14011KT 33/14 A30 RMK A01 T03310141  RH  032%=      5-min Rain = 0
KLO1 251816Z 15007KT 33/14 A30 RMK A01 T03310140  RH  032%=      5-min Rain = 0
KLO1 251817Z 16006KT 33/14 A30 RMK A01 T03310142  RH  032%=      5-min Rain = 0
KLO1 251818Z 16010KT 33/14 A30 RMK A01 T03300144  RH  033%=      5-min Rain = 0
KLO1 251819Z 17013KT 33/15 A30 RMK A01 T03330145  RH  032%=      5-min Rain = 0
KLO1 251820Z 17012KT 34/14 A30 RMK A01 T03370144  RH  031%=      5-min Rain = 0
KLO1 251821Z 16013KT 34/14 A30 RMK A01 T03400142  RH  030%=      5-min Rain = 0
KLO1 251822Z 16012KT 34/14 A30 RMK A01 T03390137  RH  030%=      5-min Rain = 0
KLO1 251823Z 17010KT 33/14 A30 RMK A01 T03330137  RH  031%=      5-min Rain = 0
KLO1 251824Z 17009KT 33/14 A30 RMK A01 T03310138  RH  031%=      5-min Rain = 0
KLO1 251825Z 17007KT 33/14 A2999 RMK A01 T03310136  RH  031%=      5-min Rain = 0
KLO1 251826Z 16006G11KT 33/14 A2999 RMK A01 T03310137  RH  031%=      5-min Rain = 0
KLO1 251827Z 16010G15KT 33/14 A2999 RMK A01 T03330139  RH  031%=      5-min Rain = 0
KLO1 251828Z 16012KT 34/14 A2999 RMK A01 T03350136  RH  030%=      5-min Rain = 0
KLO1 251829Z 17010KT 34/14 A2999 RMK A01 T03380138  RH  030%=      5-min Rain = 0
KLO1 251830Z 16009KT 34/14 A2999 RMK A01 T03400137  RH  029%=      5-min Rain = 0
KLO1 251831Z 16009KT 34/14 A2999 RMK A01 T03380137  RH  030%=      5-min Rain = 0
KLO1 251832Z 16009KT 34/14 A2999 RMK A01 T03370138  RH  030%=      5-min Rain = 0
KLO1 251833Z 15008KT 34/14 A2999 RMK A01 T03370141  RH  031%=      5-min Rain = 0
KLO1 251834Z 13010KT 34/14 A2999 RMK A01 T03360144  RH  031%=      5-min Rain = 0
KLO1 251835Z 14007KT 34/14 A2999 RMK A01 T03380144  RH  031%=      5-min Rain = 0
KLO1 251836Z 17009KT 34/14 A2999 RMK A01 T03390143  RH  031%=      5-min Rain = 0
KLO1 251837Z 18007KT 34/14 A2999 RMK A01 T03400140  RH  030%=      5-min Rain = 0
KLO1 251838Z 19009KT 34/14 A2999 RMK A01 T03380139  RH  030%=      5-min Rain = 0
KLO1 251839Z 17010KT 34/14 A2999 RMK A01 T03370142  RH  031%=      5-min Rain = 0
KLO1 251840Z 14011KT 34/14 A2999 RMK A01 T03390141  RH  030%=      5-min Rain = 0
KLO1 251841Z 15010KT 34/14 A2999 RMK A01 T03390140  RH  030%=      5-min Rain = 0
KLO1 251842Z 16013KT 34/14 A2999 RMK A01 T03380139  RH  030%=      5-min Rain = 0
KLO1 251843Z 15013KT 34/14 A2999 RMK A01 T03400140  RH  030%=      5-min Rain = 0
KLO1 251844Z 14008G14KT 34/14 A2999 RMK A01 T03400137  RH  029%=      5-min Rain = 0
KLO1 251845Z 16007G13KT 34/14 A2999 RMK A01 T03380140  RH  030%=      5-min Rain = 0
KLO1 251846Z 17014KT 34/14 A2999 RMK A01 T03400139  RH  030%=      5-min Rain = 0
KLO1 251847Z 16010KT 34/14 A2999 RMK A01 T03410137  RH  029%=      5-min Rain = 0
KLO1 251848Z 16008KT 34/14 A2999 RMK A01 T03400138  RH  030%=      5-min Rain = 0
KLO1 251849Z 15007KT 34/14 A2999 RMK A01 T03400138  RH  030%=      5-min Rain = 0
KLO1 251850Z 16010G15KT 34/14 A2999 RMK A01 T03400140  RH  030%=      5-min Rain = 0
KLO1 251851Z 15011KT 34/14 A2999 RMK A01 T03410140  RH  030%=      5-min Rain = 0
KLO1 251852Z 15009KT 34/14 A2999 RMK A01 T03420140  RH  030%=      5-min Rain = 0
KLO1 251853Z 14011KT 34/14 A2998 RMK A01 T03430142  RH  030%=      5-min Rain = 0
KLO1 251854Z 14009KT 35/14 A2998 RMK A01 T03460142  RH  029%=      5-min Rain = 0
KLO1 251855Z 14012KT 35/14 A2998 RMK A01 T03470144  RH  030%=      5-min Rain = 0
KLO1 251856Z 13012KT 35/14 A2998 RMK A01 T03510143  RH  029%=      5-min Rain = 0
KLO1 251857Z 15013KT 35/14 A2998 RMK A01 T03540141  RH  028%=      5-min Rain = 0
KLO1 251858Z 14012KT 35/14 A2998 RMK A01 T03540141  RH  028%=      5-min Rain = 0
KLO1 251859Z 17010KT 35/14 A2998 RMK A01 T03530137  RH  028%=      5-min Rain = 0
KLO1 251900Z 16010KT 35/14 A2998 RMK A01 T03460136  RH  028%=      5-min Rain = 0
KLO1 251901Z 14012KT 35/14 A2998 RMK A01 T03450141  RH  029%=      5-min Rain = 0
KLO1 251902Z 13012KT 35/14 A2998 RMK A01 T03480144  RH  029%=      5-min Rain = 0
KLO1 251903Z 13011KT 35/14 A2998 RMK A01 T03500143  RH  029%=      5-min Rain = 0
KLO1 251904Z 16012KT 35/14 A2998 RMK A01 T03470141  RH  029%=      5-min Rain = 0
KLO1 251905Z 17013KT 35/14 A2998 RMK A01 T03470136  RH  028%=      5-min Rain = 0
KLO1 251906Z 16010KT 35/14 A2998 RMK A01 T03470136  RH  028%=      5-min Rain = 0
KLO1 251907Z 16013KT 35/14 A2998 RMK A01 T03490137  RH  028%=      5-min Rain = 0
KLO1 251908Z 16011G16KT 35/14 A2998 RMK A01 T03490136  RH  028%=      5-min Rain = 0
KLO1 251909Z 17010KT 35/14 A2998 RMK A01 T03490136  RH  028%=      5-min Rain = 0
KLO1 251910Z 13011KT 35/14 A2998 RMK A01 T03480137  RH  028%=      5-min Rain = 0
KLO1 251911Z 13011KT 35/14 A2998 RMK A01 T03480140  RH  029%=      5-min Rain = 0
KLO1 251912Z 15014KT 35/14 A2998 RMK A01 T03530142  RH  028%=      5-min Rain = 0
KLO1 251913Z 17013KT 35/14 A2998 RMK A01 T03530139  RH  028%=      5-min Rain = 0
KLO1 251914Z 16009KT 35/14 A2998 RMK A01 T03480137  RH  028%=      5-min Rain = 0
KLO1 251915Z 17009KT 35/14 A2998 RMK A01 T03480139  RH  029%=      5-min Rain = 0
KLO1 251916Z 17012KT 35/14 A2998 RMK A01 T03490138  RH  028%=      5-min Rain = 0
KLO1 251917Z 16011KT 35/14 A2998 RMK A01 T03500136  RH  028%=      5-min Rain = 0
KLO1 251918Z 15013KT 35/14 A2998 RMK A01 T03490138  RH  028%=      5-min Rain = 0
KLO1 251919Z 16011KT 35/14 A2998 RMK A01 T03490140  RH  029%=      5-min Rain = 0
KLO1 251920Z 17008KT 35/14 A2998 RMK A01 T03490140  RH  029%=      5-min Rain = 0
KLO1 251921Z 16008KT 35/14 A2998 RMK A01 T03460138  RH  029%=      5-min Rain = 0
KLO1 251922Z 15010KT 35/14 A2997 RMK A01 T03460140  RH  029%=      5-min Rain = 0
KLO1 251923Z 18012KT 35/14 A2997 RMK A01 T03510140  RH  028%=      5-min Rain = 0
KLO1 251924Z 17012KT 35/14 A2997 RMK A01 T03510136  RH  028%=      5-min Rain = 0
KLO1 251925Z 18011KT 35/13 A2997 RMK A01 T03500134  RH  027%=      5-min Rain = 0
KLO1 251926Z 18014KT 35/14 A2997 RMK A01 T03520135  RH  027%=      5-min Rain = 0
KLO1 251927Z 19010KT 35/14 A2997 RMK A01 T03530136  RH  027%=      5-min Rain = 0
KLO1 251928Z 17009KT 35/14 A2997 RMK A01 T03520136  RH  027%=      5-min Rain = 0
KLO1 251929Z 14009G14KT 35/14 A2997 RMK A01 T03500136  RH  028%=      5-min Rain = 0
KLO1 251930Z 14013KT 35/14 A2997 RMK A01 T03490135  RH  028%=      5-min Rain = 0
KLO1 251931Z 14012KT 35/14 A2997 RMK A01 T03500135  RH  027%=      5-min Rain = 0
KLO1 251932Z 16011KT 35/13 A2997 RMK A01 T03510134  RH  027%=      5-min Rain = 0
KLO1 251933Z 15014KT 35/13 A2997 RMK A01 T03510132  RH  027%=      5-min Rain = 0
KLO1 251934Z 14012KT 35/13 A2997 RMK A01 T03510130  RH  026%=      5-min Rain = 0
KLO1 251935Z 17011KT 35/13 A2997 RMK A01 T03510132  RH  027%=      5-min Rain = 0
KLO1 251936Z 17009KT 35/13 A2997 RMK A01 T03530128  RH  026%=      5-min Rain = 0
KLO1 251937Z 15009KT 35/13 A2997 RMK A01 T03520128  RH  026%=      5-min Rain = 0
KLO1 251938Z 13008KT 35/13 A2997 RMK A01 T03520131  RH  027%=      5-min Rain = 0
KLO1 251939Z 13006KT 35/13 A2997 RMK A01 T03510134  RH  027%=      5-min Rain = 0
KLO1 251940Z 13007G13KT 35/14 A2997 RMK A01 T03490136  RH  028%=      5-min Rain = 0
KLO1 251941Z 14010KT 35/14 A2997 RMK A01 T03490136  RH  028%=      5-min Rain = 0
KLO1 251942Z 14008KT 35/14 A2997 RMK A01 T03490136  RH  028%=      5-min Rain = 0
KLO1 251943Z 15014KT 35/14 A2997 RMK A01 T03510138  RH  028%=      5-min Rain = 0
KLO1 251944Z 15012KT 36/14 A2997 RMK A01 T03550140  RH  028%=      5-min Rain = 0
KLO1 251945Z 17008KT 36/14 A2997 RMK A01 T03570141  RH  027%=      5-min Rain = 0
KLO1 251946Z 17009KT 35/14 A2997 RMK A01 T03530138  RH  028%=      5-min Rain = 0
KLO1 251947Z 18010KT 35/14 A2997 RMK A01 T03500137  RH  028%=      5-min Rain = 0
KLO1 251948Z 18010G16KT 35/13 A2997 RMK A01 T03530134  RH  027%=      5-min Rain = 0
KLO1 251949Z 16015G20KT 36/14 A2997 RMK A01 T03570138  RH  027%=      5-min Rain = 0
KLO1 251950Z 16010KT 36/14 A2997 RMK A01 T03550137  RH  027%=      5-min Rain = 0
KLO1 251951Z 14011KT 35/14 A2997 RMK A01 T03520136  RH  027%=      5-min Rain = 0
KLO1 251952Z 12013KT 35/14 A2997 RMK A01 T03510136  RH  027%=      5-min Rain = 0
KLO1 251953Z 12012KT 36/14 A2997 RMK A01 T03550140  RH  028%=      5-min Rain = 0
KLO1 251954Z 12011KT 35/14 A2997 RMK A01 T03540138  RH  027%=      5-min Rain = 0
KLO1 251955Z 11011KT 35/14 A2997 RMK A01 T03520138  RH  028%=      5-min Rain = 0
KLO1 251956Z 10010KT 35/14 A2997 RMK A01 T03510138  RH  028%=      5-min Rain = 0
KLO1 251957Z 12011KT 35/13 A2997 RMK A01 T03530134  RH  027%=      5-min Rain = 0
KLO1 251958Z 14012KT 35/14 A2997 RMK A01 T03540136  RH  027%=      5-min Rain = 0
KLO1 251959Z 17010KT 36/14 A2997 RMK A01 T03570136  RH  027%=      5-min Rain = 0
KLO1 252000Z 18009KT 36/14 A2997 RMK A01 T03560136  RH  027%=      5-min Rain = 0
KLO1 252001Z 16007KT 36/14 A2997 RMK A01 T03550136  RH  027%=      5-min Rain = 0
KLO1 252002Z 15007KT 35/14 A2997 RMK A01 T03540138  RH  027%=      5-min Rain = 0
KLO1 252003Z 17011KT 36/14 A2997 RMK A01 T03570139  RH  027%=      5-min Rain = 0
KLO1 252004Z 17012KT 36/14 A2996 RMK A01 T03590137  RH  027%=      5-min Rain = 0
KLO1 252005Z 16012KT 36/13 A2997 RMK A01 T03570134  RH  026%=      5-min Rain = 0
KLO1 252006Z 15009KT 35/13 A2997 RMK A01 T03540132  RH  026%=      5-min Rain = 0
KLO1 252007Z 14008KT 35/13 A2997 RMK A01 T03530133  RH  027%=      5-min Rain = 0
KLO1 252008Z 15007KT 35/13 A2997 RMK A01 T03520132  RH  027%=      5-min Rain = 0
KLO1 252009Z 16004KT 35/13 A2997 RMK A01 T03520129  RH  026%=      5-min Rain = 0
KLO1 252010Z 18007KT 35/13 A2996 RMK A01 T03510129  RH  026%=      5-min Rain = 0
KLO1 252011Z 16007KT 35/13 A2996 RMK A01 T03520129  RH  026%=      5-min Rain = 0
KLO1 252012Z 18014KT 35/13 A2996 RMK A01 T03530134  RH  027%=      5-min Rain = 0
KLO1 252013Z 15013KT 35/14 A2996 RMK A01 T03530136  RH  027%=      5-min Rain = 0
KLO1 252014Z 15010KT 35/14 A2996 RMK A01 T03540135  RH  027%=      5-min Rain = 0
KLO1 252015Z 16011KT 35/14 A2996 RMK A01 T03520136  RH  027%=      5-min Rain = 0
KLO1 252016Z 16011KT 36/13 A2996 RMK A01 T03550133  RH  026%=      5-min Rain = 0
KLO1 252017Z 16010KT 35/13 A2996 RMK A01 T03530132  RH  027%=      5-min Rain = 0
KLO1 252018Z 16005KT 35/13 A2996 RMK A01 T03510133  RH  027%=      5-min Rain = 0
KLO1 252019Z 15007KT 35/13 A2996 RMK A01 T03500134  RH  027%=      5-min Rain = 0
KLO1 252020Z 16010KT 35/13 A2996 RMK A01 T03500132  RH  027%=      5-min Rain = 0
KLO1 252021Z 13012KT 35/13 A2996 RMK A01 T03510131  RH  027%=      5-min Rain = 0
KLO1 252022Z 16010KT 35/14 A2996 RMK A01 T03530135  RH  027%=      5-min Rain = 0
KLO1 252023Z 15012KT 36/14 A2996 RMK A01 T03550137  RH  027%=      5-min Rain = 0
KLO1 252024Z 16006KT 35/14 A2996 RMK A01 T03530137  RH  027%=      5-min Rain = 0
KLO1 252025Z 12004KT 35/14 A2996 RMK A01 T03520136  RH  027%=      5-min Rain = 0
KLO1 252026Z 14009KT 35/14 A2996 RMK A01 T03510138  RH  028%=      5-min Rain = 0
KLO1 252027Z 14012KT 35/14 A2996 RMK A01 T03540137  RH  027%=      5-min Rain = 0
KLO1 252028Z 14011KT 36/14 A2996 RMK A01 T03550136  RH  027%=      5-min Rain = 0
KLO1 252029Z 14009KT 35/14 A2996 RMK A01 T03540136  RH  027%=      5-min Rain = 0
KLO1 252030Z 18006G11KT 35/14 A2996 RMK A01 T03530137  RH  027%=      5-min Rain = 0
KLO1 252031Z 14012G19KT 35/14 A2996 RMK A01 T03530137  RH  027%=      5-min Rain = 0
KLO1 252032Z 16013KT 36/14 A2996 RMK A01 T03560139  RH  027%=      5-min Rain = 0
KLO1 252033Z 16013KT 36/14 A2996 RMK A01 T03580140  RH  027%=      5-min Rain = 0
KLO1 252034Z 14012KT 36/14 A2996 RMK A01 T03570139  RH  027%=      5-min Rain = 0
KLO1 252035Z 12012KT 36/14 A2996 RMK A01 T03580138  RH  027%=      5-min Rain = 0
KLO1 252036Z 12009KT 36/13 A2996 RMK A01 T03560134  RH  026%=      5-min Rain = 0
KLO1 252037Z 13015KT 35/14 A2996 RMK A01 T03540136  RH  027%=      5-min Rain = 0
KLO1 252038Z 12013KT 36/14 A2996 RMK A01 T03580135  RH  026%=      5-min Rain = 0
KLO1 252039Z 10010KT 36/13 A2996 RMK A01 T03550133  RH  026%=      5-min Rain = 0
KLO1 252040Z 09009KT 35/13 A2995 RMK A01 T03530134  RH  027%=      5-min Rain = 0
KLO1 252041Z 12009KT 35/13 A2996 RMK A01 T03520133  RH  027%=      5-min Rain = 0
KLO1 252042Z 13009KT 35/13 A2996 RMK A01 T03520131  RH  026%=      5-min Rain = 0
KLO1 252043Z 15012KT 36/14 A2996 RMK A01 T03570137  RH  027%=      5-min Rain = 0
KLO1 252044Z 13012KT 36/14 A2996 RMK A01 T03570135  RH  026%=      5-min Rain = 0
KLO1 252045Z 13011KT 36/14 A2996 RMK A01 T03550135  RH  027%=      5-min Rain = 0
KLO1 252046Z 14013KT 35/13 A2996 RMK A01 T03540133  RH  027%=      5-min Rain = 0
KLO1 252047Z 15013KT 35/13 A2996 RMK A01 T03530133  RH  027%=      5-min Rain = 0
KLO1 252048Z 16010G16KT 36/13 A2996 RMK A01 T03550132  RH  026%=      5-min Rain = 0
KLO1 252049Z 17009KT 36/13 A2996 RMK A01 T03560131  RH  026%=      5-min Rain = 0
KLO1 252050Z 15006KT 36/13 A2995 RMK A01 T03550129  RH  026%=      5-min Rain = 0
KLO1 252051Z 14011KT 35/13 A2996 RMK A01 T03530127  RH  026%=      5-min Rain = 0
KLO1 252052Z 14011KT 36/13 A2996 RMK A01 T03560126  RH  025%=      5-min Rain = 0
KLO1 252053Z 16007KT 36/12 A2996 RMK A01 T03550124  RH  025%=      5-min Rain = 0
KLO1 252054Z 15005KT 35/12 A2995 RMK A01 T03510122  RH  025%=      5-min Rain = 0
KLO1 252055Z 14005KT 35/13 A2995 RMK A01 T03490126  RH  026%=      5-min Rain = 0
KLO1 252056Z 15009G15KT 35/13 A2995 RMK A01 T03500132  RH  027%=      5-min Rain = 0
KLO1 252057Z 15013KT 36/13 A2995 RMK A01 T03560131  RH  026%=      5-min Rain = 0
KLO1 252058Z 15013KT 36/13 A2995 RMK A01 T03610128  RH  025%=      5-min Rain = 0
KLO1 252059Z 15011KT 36/13 A2995 RMK A01 T03600125  RH  024%=      5-min Rain = 0
KLO1 252100Z 15009KT 36/13 A2995 RMK A01 T03570125  RH  025%=      5-min Rain = 0
KLO1 252101Z 14007KT 36/13 A2995 RMK A01 T03560127  RH  025%=      5-min Rain = 0
KLO1 252102Z 16009KT 36/13 A2995 RMK A01 T03560127  RH  025%=      5-min Rain = 0
KLO1 252103Z 14015KT 36/13 A2995 RMK A01 T03580129  RH  025%=      5-min Rain = 0
KLO1 252104Z 15011KT 36/13 A2995 RMK A01 T03610127  RH  025%=      5-min Rain = 0
KLO1 252105Z 14010KT 36/13 A2995 RMK A01 T03590133  RH  026%=      5-min Rain = 0
KLO1 252106Z 14007KT 36/14 A2995 RMK A01 T03580139  RH  027%=      5-min Rain = 0
KLO1 252107Z 12005KT 36/14 A2995 RMK A01 T03590138  RH  027%=      5-min Rain = 0
KLO1 252108Z 16008G14KT 36/14 A2995 RMK A01 T03590140  RH  027%=      5-min Rain = 0
KLO1 252109Z 15014KT 36/14 A2995 RMK A01 T03630140  RH  027%=      5-min Rain = 0
KLO1 252110Z 15014KT 36/14 A2995 RMK A01 T03630138  RH  026%=      5-min Rain = 0
KLO1 252111Z 16014KT 36/14 A2995 RMK A01 T03600136  RH  026%=      5-min Rain = 0
KLO1 252112Z 17011KT 36/13 A2995 RMK A01 T03570134  RH  026%=      5-min Rain = 0
KLO1 252113Z 17012KT 36/13 A2995 RMK A01 T03570134  RH  026%=      5-min Rain = 0
KLO1 252114Z 17009KT 36/14 A2995 RMK A01 T03570136  RH  027%=      5-min Rain = 0
KLO1 252115Z 16012KT 36/13 A2995 RMK A01 T03570131  RH  026%=      5-min Rain = 0
KLO1 252116Z 17011KT 36/13 A2995 RMK A01 T03570130  RH  025%=      5-min Rain = 0
KLO1 252117Z 17009KT 36/13 A2995 RMK A01 T03560129  RH  026%=      5-min Rain = 0
KLO1 252118Z 15011KT 36/13 A2995 RMK A01 T03550129  RH  026%=      5-min Rain = 0
KLO1 252119Z 14010KT 36/13 A2995 RMK A01 T03550128  RH  026%=      5-min Rain = 0
KLO1 252120Z 15009KT 36/13 A2995 RMK A01 T03560130  RH  026%=      5-min Rain = 0
KLO1 252121Z 16010KT 36/13 A2995 RMK A01 T03570134  RH  026%=      5-min Rain = 0
KLO1 252122Z 16011KT 36/14 A2995 RMK A01 T03550135  RH  027%=      5-min Rain = 0
KLO1 252123Z 17013KT 36/13 A2995 RMK A01 T03560134  RH  026%=      5-min Rain = 0
KLO1 252124Z 18013KT 36/14 A2995 RMK A01 T03570141  RH  028%=      5-min Rain = 0
KLO1 252125Z 16014KT 36/14 A2995 RMK A01 T03580140  RH  027%=      5-min Rain = 0
KLO1 252126Z 16013KT 36/14 A2995 RMK A01 T03550137  RH  027%=      5-min Rain = 0
KLO1 252127Z 17011KT 36/14 A2995 RMK A01 T03550137  RH  027%=      5-min Rain = 0
KLO1 252128Z 16015KT 36/14 A2995 RMK A01 T03550138  RH  027%=      5-min Rain = 0
KLO1 252129Z 16014KT 36/14 A2995 RMK A01 T03560137  RH  027%=      5-min Rain = 0
KLO1 252130Z 16012G17KT 36/13 A2994 RMK A01 T03560134  RH  027%=      5-min Rain = 0
KLO1 252131Z 16013KT 35/14 A2994 RMK A01 T03540136  RH  027%=      5-min Rain = 0
KLO1 252132Z 14013G19KT 35/14 A2994 RMK A01 T03520136  RH  027%=      5-min Rain = 0
KLO1 252133Z 16011KT 35/14 A2994 RMK A01 T03530140  RH  028%=      5-min Rain = 0
KLO1 252134Z 15012KT 35/14 A2994 RMK A01 T03520140  RH  028%=      5-min Rain = 0
KLO1 252135Z 17013KT 36/14 A2994 RMK A01 T03560142  RH  028%=      5-min Rain = 0
KLO1 252136Z 15012KT 36/14 A2994 RMK A01 T03570142  RH  028%=      5-min Rain = 0
KLO1 252137Z 15010KT 36/14 A2994 RMK A01 T03570141  RH  027%=      5-min Rain = 0
KLO1 252138Z 16014KT 36/14 A2994 RMK A01 T03600142  RH  027%=      5-min Rain = 0
KLO1 252139Z 16014KT 36/14 A2994 RMK A01 T03590142  RH  027%=      5-min Rain = 0
KLO1 252140Z 13012KT 36/14 A2994 RMK A01 T03590141  RH  027%=      5-min Rain = 0
KLO1 252141Z 13011KT 36/14 A2994 RMK A01 T03590138  RH  027%=      5-min Rain = 0
KLO1 252142Z 14011KT 36/14 A2994 RMK A01 T03580137  RH  027%=      5-min Rain = 0
KLO1 252143Z 15010KT 36/13 A2994 RMK A01 T03580134  RH  026%=      5-min Rain = 0
KLO1 252144Z 12014G19KT 36/13 A2994 RMK A01 T03560133  RH  026%=      5-min Rain = 0
KLO1 252145Z 12015KT 36/14 A2994 RMK A01 T03560140  RH  027%=      5-min Rain = 0
KLO1 252146Z 12011KT 35/14 A2994 RMK A01 T03520139  RH  028%=      5-min Rain = 0
KLO1 252147Z 14012G17KT 35/14 A2994 RMK A01 T03490140  RH  028%=      5-min Rain = 0
KLO1 252148Z 16012G19KT 35/14 A2994 RMK A01 T03540138  RH  027%=      5-min Rain = 0
KLO1 252149Z 17015KT 36/14 A2994 RMK A01 T03570137  RH  027%=      5-min Rain = 0
KLO1 252150Z 18014KT 36/14 A2994 RMK A01 T03570137  RH  027%=      5-min Rain = 0
KLO1 252151Z 19013KT 36/14 A2994 RMK A01 T03570137  RH  027%=      5-min Rain = 0
KLO1 252152Z 17015KT 36/14 A2994 RMK A01 T03570138  RH  027%=      5-min Rain = 0
KLO1 252153Z 14017KT 36/14 A2994 RMK A01 T03560141  RH  028%=      5-min Rain = 0
KLO1 252154Z 13018KT 36/14 A2994 RMK A01 T03570143  RH  028%=      5-min Rain = 0
KLO1 252155Z 13014KT 36/14 A2994 RMK A01 T03570143  RH  028%=      5-min Rain = 0
KLO1 252156Z 14012KT 36/14 A2994 RMK A01 T03560142  RH  028%=      5-min Rain = 0
KLO1 252157Z 14015KT 35/14 A2994 RMK A01 T03540139  RH  028%=      5-min Rain = 0
KLO1 252158Z 13014KT 36/14 A2994 RMK A01 T03560141  RH  028%=      5-min Rain = 0
KLO1 252159Z 13015G21KT 36/15 A2994 RMK A01 T03560145  RH  028%=      5-min Rain = 0
KLO1 252200Z 13015KT 36/15 A2994 RMK A01 T03560145  RH  028%=      5-min Rain = 0
KLO1 252201Z 13014G19KT 35/15 A2994 RMK A01 T03530145  RH  029%=      5-min Rain = 0
KLO1 252202Z 12017KT 35/15 A2994 RMK A01 T03530147  RH  029%=      5-min Rain = 0
KLO1 252203Z 13013KT 36/15 A2994 RMK A01 T03550147  RH  029%=      5-min Rain = 0
KLO1 252204Z 13013KT 36/15 A2994 RMK A01 T03550148  RH  029%=      5-min Rain = 0
KLO1 252205Z 14018KT 36/15 A2994 RMK A01 T03550148  RH  029%=      5-min Rain = 0
KLO1 252206Z 14019KT 36/15 A2994 RMK A01 T03580150  RH  029%=      5-min Rain = 0
KLO1 252207Z 13017KT 36/15 A2994 RMK A01 T03590149  RH  029%=      5-min Rain = 0
KLO1 252208Z 12015KT 36/15 A2994 RMK A01 T03590149  RH  029%=      5-min Rain = 0
KLO1 252209Z 13015G20KT 36/15 A2994 RMK A01 T03570146  RH  028%=      5-min Rain = 0
KLO1 252210Z 12016KT 36/15 A2994 RMK A01 T03550147  RH  029%=      5-min Rain = 0
KLO1 252211Z 13017KT 36/15 A2994 RMK A01 T03550145  RH  029%=      5-min Rain = 0
KLO1 252212Z 13015KT 36/15 A2994 RMK A01 T03550145  RH  028%=      5-min Rain = 0
KLO1 252213Z 12015KT 36/14 A2994 RMK A01 T03550144  RH  028%=      5-min Rain = 0
KLO1 252214Z 12015KT 36/14 A2994 RMK A01 T03550144  RH  028%=      5-min Rain = 0
KLO1 252215Z 12017KT 36/14 A2994 RMK A01 T03560144  RH  028%=      5-min Rain = 0
KLO1 252216Z 13012G18KT 35/14 A2994 RMK A01 T03530142  RH  028%=      5-min Rain = 0
KLO1 252217Z 13016KT 35/14 A2994 RMK A01 T03510143  RH  029%=      5-min Rain = 0
KLO1 252218Z 14013KT 35/14 A2994 RMK A01 T03510143  RH  029%=      5-min Rain = 0
KLO1 252219Z 14012KT 35/14 A2994 RMK A01 T03530143  RH  028%=      5-min Rain = 0
KLO1 252220Z 12012KT 35/14 A2994 RMK A01 T03540139  RH  028%=      5-min Rain = 0
KLO1 252221Z 14012G17KT 35/14 A2994 RMK A01 T03540138  RH  027%=      5-min Rain = 0
KLO1 252222Z 14016KT 36/14 A2994 RMK A01 T03550135  RH  027%=      5-min Rain = 0
KLO1 252223Z 13015KT 36/13 A2993 RMK A01 T03550132  RH  026%=      5-min Rain = 0
KLO1 252224Z 13015KT 36/13 A2994 RMK A01 T03560132  RH  026%=      5-min Rain = 0
KLO1 252225Z 14016KT 36/13 A2993 RMK A01 T03560133  RH  026%=      5-min Rain = 0
KLO1 252226Z 14013KT 36/13 A2993 RMK A01 T03560131  RH  026%=      5-min Rain = 0
KLO1 252227Z 13016KT 35/13 A2994 RMK A01 T03540132  RH  026%=      5-min Rain = 0
KLO1 252228Z 13015KT 35/14 A2994 RMK A01 T03530135  RH  027%=      5-min Rain = 0
KLO1 252229Z 13015KT 35/13 A2994 RMK A01 T03540132  RH  026%=      5-min Rain = 0
KLO1 252230Z 11012KT 35/13 A2993 RMK A01 T03530129  RH  026%=      5-min Rain = 0
KLO1 252231Z 11012KT 35/13 A2993 RMK A01 T03530128  RH  026%=      5-min Rain = 0
KLO1 252232Z 12012KT 35/13 A2993 RMK A01 T03520129  RH  026%=      5-min Rain = 0
KLO1 252233Z 12014KT 35/13 A2993 RMK A01 T03530132  RH  027%=      5-min Rain = 0
KLO1 252234Z 14015KT 36/14 A2993 RMK A01 T03550135  RH  027%=      5-min Rain = 0
KLO1 252235Z 15014G19KT 36/14 A2993 RMK A01 T03560136  RH  027%=      5-min Rain = 0
KLO1 252236Z 14015KT 35/14 A2993 RMK A01 T03540136  RH  027%=      5-min Rain = 0
KLO1 252237Z 13013KT 36/14 A2994 RMK A01 T03550135  RH  027%=      5-min Rain = 0
KLO1 252238Z 13012KT 35/14 A2993 RMK A01 T03530136  RH  027%=      5-min Rain = 0
KLO1 252239Z 14014KT 35/14 A2993 RMK A01 T03540136  RH  027%=      5-min Rain = 0
KLO1 252240Z 15013KT 36/14 A2993 RMK A01 T03550135  RH  027%=      5-min Rain = 0
KLO1 252241Z 16014G20KT 35/14 A2993 RMK A01 T03530136  RH  027%=      5-min Rain = 0
KLO1 252242Z 14016KT 35/14 A2993 RMK A01 T03530137  RH  027%=      5-min Rain = 0
KLO1 252243Z 14010KT 35/14 A2993 RMK A01 T03540135  RH  027%=      5-min Rain = 0
KLO1 252244Z 14010KT 35/13 A2993 RMK A01 T03530133  RH  027%=      5-min Rain = 0
KLO1 252245Z 13014KT 35/13 A2993 RMK A01 T03520132  RH  027%=      5-min Rain = 0
KLO1 252246Z 13015KT 35/13 A2993 RMK A01 T03540128  RH  026%=      5-min Rain = 0
KLO1 252247Z 13015KT 36/13 A2993 RMK A01 T03550127  RH  025%=      5-min Rain = 0
KLO1 252248Z 12017KT 36/13 A2993 RMK A01 T03570131  RH  026%=      5-min Rain = 0
KLO1 252249Z 12014KT 36/13 A2993 RMK A01 T03570131  RH  026%=      5-min Rain = 0
KLO1 252250Z 12015KT 35/13 A2993 RMK A01 T03540132  RH  026%=      5-min Rain = 0
KLO1 252251Z 12012KT 35/13 A2993 RMK A01 T03540132  RH  026%=      5-min Rain = 0
KLO1 252252Z 12010KT 35/13 A2993 RMK A01 T03510129  RH  026%=      5-min Rain = 0
KLO1 252253Z 12013KT 35/13 A2993 RMK A01 T03500127  RH  026%=      5-min Rain = 0
KLO1 252254Z 12017KT 35/13 A2993 RMK A01 T03520129  RH  026%=      5-min Rain = 0
KLO1 252255Z 14016KT 35/13 A2993 RMK A01 T03540133  RH  027%=      5-min Rain = 0
KLO1 252256Z 14015KT 35/13 A2993 RMK A01 T03540129  RH  026%=      5-min Rain = 0
KLO1 252257Z 14014KT 35/13 A2993 RMK A01 T03540128  RH  026%=      5-min Rain = 0
KLO1 252258Z 13011KT 35/13 A2993 RMK A01 T03540125  RH  025%=      5-min Rain = 0
KLO1 252259Z 13011KT 35/13 A2993 RMK A01 T03520126  RH  025%=      5-min Rain = 0
KLO1 252300Z 12008KT 35/13 A2993 RMK A01 T03510128  RH  026%=      5-min Rain = 0
KLO1 252301Z 13010KT 35/13 A2993 RMK A01 T03510131  RH  026%=      5-min Rain = 0
KLO1 252302Z 12011KT 36/13 A2993 RMK A01 T03550132  RH  026%=      5-min Rain = 0
KLO1 252303Z 13013KT 36/13 A2993 RMK A01 T03560129  RH  026%=      5-min Rain = 0
KLO1 252304Z 12012KT 36/13 A2993 RMK A01 T03560127  RH  025%=      5-min Rain = 0
KLO1 252305Z 11012KT 36/13 A2993 RMK A01 T03560127  RH  025%=      5-min Rain = 0
KLO1 252306Z 13012KT 36/13 A2993 RMK A01 T03550126  RH  025%=      5-min Rain = 0
KLO1 252307Z 13015KT 36/13 A2993 RMK A01 T03570129  RH  025%=      5-min Rain = 0
KLO1 252308Z 13015KT 36/13 A2993 RMK A01 T03550131  RH  026%=      5-min Rain = 0
KLO1 252309Z 12016KT 35/13 A2993 RMK A01 T03540133  RH  026%=      5-min Rain = 0
KLO1 252310Z 12016KT 36/13 A2993 RMK A01 T03550132  RH  026%=      5-min Rain = 0
KLO1 252311Z 13015KT 35/13 A2993 RMK A01 T03540132  RH  026%=      5-min Rain = 0
KLO1 252312Z 14014KT 36/13 A2993 RMK A01 T03560134  RH  027%=      5-min Rain = 0
KLO1 252313Z 15014KT 36/13 A2993 RMK A01 T03560133  RH  026%=      5-min Rain = 0
KLO1 252314Z 14015G20KT 36/13 A2993 RMK A01 T03570132  RH  026%=      5-min Rain = 0
KLO1 252315Z 14014KT 36/13 A2993 RMK A01 T03560131  RH  026%=      5-min Rain = 0
KLO1 252316Z 14011KT 36/13 A2993 RMK A01 T03550130  RH  026%=      5-min Rain = 0
KLO1 252317Z 13018G24KT 35/13 A2992 RMK A01 T03540130  RH  026%=      5-min Rain = 0
KLO1 252318Z 13017KT 36/13 A2993 RMK A01 T03560130  RH  026%=      5-min Rain = 0
KLO1 252319Z 14014KT 36/13 A2993 RMK A01 T03570127  RH  025%=      5-min Rain = 0
KLO1 252320Z 13017KT 36/13 A2993 RMK A01 T03560130  RH  026%=      5-min Rain = 0
KLO1 252321Z 12015KT 35/13 A2993 RMK A01 T03530129  RH  026%=      5-min Rain = 0
KLO1 252322Z 12013KT 35/13 A2993 RMK A01 T03530131  RH  026%=      5-min Rain = 0
KLO1 252323Z 12014KT 35/13 A2992 RMK A01 T03540134  RH  027%=      5-min Rain = 0
KLO1 252324Z 13013KT 35/14 A2992 RMK A01 T03540136  RH  027%=      5-min Rain = 0
KLO1 252325Z 13014KT 35/14 A2992 RMK A01 T03510136  RH  028%=      5-min Rain = 0
KLO1 252326Z 16013KT 35/14 A2992 RMK A01 T03510135  RH  027%=      5-min Rain = 0
KLO1 252327Z 17013KT 35/13 A2992 RMK A01 T03510129  RH  026%=      5-min Rain = 0
KLO1 252328Z 16013KT 35/13 A2992 RMK A01 T03510127  RH  026%=      5-min Rain = 0
KLO1 252329Z 15014KT 35/13 A2992 RMK A01 T03500128  RH  026%=      5-min Rain = 0
KLO1 252330Z 14014KT 35/13 A2992 RMK A01 T03510131  RH  027%=      5-min Rain = 0
KLO1 252331Z 14018KT 35/14 A2992 RMK A01 T03510135  RH  027%=      5-min Rain = 0
KLO1 252332Z 14018KT 35/14 A2992 RMK A01 T03520137  RH  028%=      5-min Rain = 0
KLO1 252333Z 14016KT 35/14 A2992 RMK A01 T03540138  RH  027%=      5-min Rain = 0
KLO1 252334Z 15015KT 35/14 A2992 RMK A01 T03540139  RH  028%=      5-min Rain = 0
KLO1 252335Z 16014KT 35/14 A2992 RMK A01 T03530138  RH  028%=      5-min Rain = 0
KLO1 252336Z 16015KT 35/14 A2992 RMK A01 T03520137  RH  028%=      5-min Rain = 0
KLO1 252337Z 16015KT 35/14 A2992 RMK A01 T03510136  RH  027%=      5-min Rain = 0
KLO1 252338Z 16011KT 35/14 A2992 RMK A01 T03500135  RH  028%=      5-min Rain = 0
KLO1 252339Z 16016G22KT 35/14 A2992 RMK A01 T03500135  RH  028%=      5-min Rain = 0
KLO1 252340Z 15019KT 35/14 A2992 RMK A01 T03490136  RH  028%=      5-min Rain = 0
KLO1 252341Z 14017KT 35/14 A2992 RMK A01 T03500139  RH  028%=      5-min Rain = 0
KLO1 252342Z 15016KT 35/14 A2992 RMK A01 T03500139  RH  028%=      5-min Rain = 0
KLO1 252343Z 16015KT 35/14 A2992 RMK A01 T03490140  RH  028%=      5-min Rain = 0
KLO1 252344Z 16017KT 35/14 A2992 RMK A01 T03490139  RH  028%=      5-min Rain = 0
KLO1 252345Z 17014KT 35/14 A2992 RMK A01 T03480140  RH  029%=      5-min Rain = 0
KLO1 252346Z 16016KT 35/14 A2992 RMK A01 T03470139  RH  029%=      5-min Rain = 0
KLO1 252347Z 14016KT 35/14 A2992 RMK A01 T03480141  RH  029%=      5-min Rain = 0
KLO1 252348Z 13020KT 35/15 A2992 RMK A01 T03490146  RH  030%=      5-min Rain = 0
KLO1 252349Z 13020KT 35/15 A2992 RMK A01 T03480148  RH  030%=      5-min Rain = 0
KLO1 252350Z 13020KT 35/15 A2992 RMK A01 T03470148  RH  030%=      5-min Rain = 0
KLO1 252351Z 13017KT 35/15 A2992 RMK A01 T03460148  RH  031%=      5-min Rain = 0
KLO1 252352Z 14015KT 35/15 A2992 RMK A01 T03460149  RH  031%=      5-min Rain = 0
KLO1 252353Z 13015KT 35/15 A2992 RMK A01 T03470150  RH  031%=      5-min Rain = 0
KLO1 252354Z 12015G20KT 35/15 A2992 RMK A01 T03480150  RH  031%=      5-min Rain = 0
KLO1 252355Z 12019KT 35/15 A2992 RMK A01 T03480150  RH  031%=      5-min Rain = 0
KLO1 252356Z 14020KT 35/15 A2992 RMK A01 T03480151  RH  031%=      5-min Rain = 0
KLO1 252357Z 14018KT 35/15 A2992 RMK A01 T03470150  RH  031%=      5-min Rain = 0
KLO1 252358Z 13019KT 35/15 A2992 RMK A01 T03470150  RH  031%=      5-min Rain = 0
KLO1 252359Z 13020KT 35/15 A2992 RMK A01 T03460149  RH  031%=      5-min Rain = 0
KLO1 260000Z 14016KT 34/15 A2992 RMK A01 T03440148  RH  031%=      5-min Rain = 0
KLO1 260001Z 14014KT 35/15 A2992 RMK A01 T03460148  RH  031%=      5-min Rain = 0
KLO1 260002Z 14017KT 35/15 A2992 RMK A01 T03470150  RH  031%=      5-min Rain = 0
KLO1 260003Z 14019KT 35/15 A2992 RMK A01 T03460151  RH  031%=      5-min Rain = 0
KLO1 260004Z 14018KT 34/15 A2992 RMK A01 T03440149  RH  031%=      5-min Rain = 0
KLO1 260005Z 13018KT 34/15 A2992 RMK A01 T03430149  RH  031%=      5-min Rain = 0
KLO1 260006Z 14016KT 34/15 A2992 RMK A01 T03420149  RH  031%=      5-min Rain = 0
KLO1 260007Z 15019KT 34/15 A2992 RMK A01 T03420148  RH  031%=      5-min Rain = 0
KLO1 260008Z 14018KT 34/15 A2992 RMK A01 T03420148  RH  031%=      5-min Rain = 0
KLO1 260009Z 13016KT 34/15 A2992 RMK A01 T03410147  RH  031%=      5-min Rain = 0
KLO1 260010Z 13016KT 34/15 A2992 RMK A01 T03410148  RH  031%=      5-min Rain = 0
KLO1 260011Z 13018KT 34/15 A2992 RMK A01 T03410148  RH  031%=      5-min Rain = 0
KLO1 260012Z 14018G23KT 34/15 A2992 RMK A01 T03410149  RH  032%=      5-min Rain = 0
KLO1 260013Z 15019KT 34/15 A2992 RMK A01 T03410147  RH  031%=      5-min Rain = 0
KLO1 260014Z 14020KT 34/15 A2992 RMK A01 T03400147  RH  032%=      5-min Rain = 0
KLO1 260015Z 14019KT 34/15 A2992 RMK A01 T03390147  RH  032%=      5-min Rain = 0
KLO1 260016Z 14018KT 34/15 A2992 RMK A01 T03390147  RH  032%=      5-min Rain = 0
KLO1 260017Z 13017KT 34/15 A2992 RMK A01 T03390147  RH  032%=      5-min Rain = 0
KLO1 260018Z 13016KT 34/15 A2992 RMK A01 T03390148  RH  032%=      5-min Rain = 0
KLO1 260019Z 14017KT 34/15 A2992 RMK A01 T03400148  RH  032%=      5-min Rain = 0
KLO1 260020Z 14019KT 34/15 A2992 RMK A01 T03400148  RH  032%=      5-min Rain = 0
KLO1 260021Z 14020KT 34/15 A2992 RMK A01 T03390147  RH  032%=      5-min Rain = 0
KLO1 260022Z 14017KT 34/15 A2993 RMK A01 T03380147  RH  032%=      5-min Rain = 0
KLO1 260023Z 15015KT 34/15 A2993 RMK A01 T03380147  RH  032%=      5-min Rain = 0
KLO1 260024Z 15016KT 34/15 A2992 RMK A01 T03380147  RH  032%=      5-min Rain = 0
KLO1 260025Z 15016KT 34/15 A2992 RMK A01 T03380146  RH  032%=      5-min Rain = 0
KLO1 260026Z 15017KT 34/15 A2993 RMK A01 T03380147  RH  032%=      5-min Rain = 0
KLO1 260027Z 14015KT 34/15 A2993 RMK A01 T03380150  RH  032%=      5-min Rain = 0
KLO1 260028Z 15014KT 34/15 A2992 RMK A01 T03380150  RH  032%=      5-min Rain = 0
KLO1 260029Z 15017KT 34/15 A2993 RMK A01 T03380149  RH  032%=      5-min Rain = 0
KLO1 260030Z 15016KT 34/15 A2993 RMK A01 T03370148  RH  032%=      5-min Rain = 0
KLO1 260031Z 14018KT 34/15 A2993 RMK A01 T03360149  RH  032%=      5-min Rain = 0
KLO1 260032Z 15017KT 34/15 A2993 RMK A01 T03360148  RH  032%=      5-min Rain = 0
KLO1 260033Z 15016KT 34/15 A2993 RMK A01 T03360147  RH  032%=      5-min Rain = 0
KLO1 260034Z 15019KT 34/15 A2993 RMK A01 T03360147  RH  032%=      5-min Rain = 0
KLO1 260035Z 15019KT 34/15 A2993 RMK A01 T03350146  RH  032%=      5-min Rain = 0
KLO1 260036Z 15016KT 34/15 A2993 RMK A01 T03350146  RH  032%=      5-min Rain = 0
KLO1 260037Z 15015KT 34/15 A2993 RMK A01 T03350146  RH  032%=      5-min Rain = 0
KLO1 260038Z 15015KT 33/15 A2993 RMK A01 T03340146  RH  032%=      5-min Rain = 0
KLO1 260039Z 15017KT 33/15 A2993 RMK A01 T03340146  RH  032%=      5-min Rain = 0
KLO1 260040Z 15017KT 33/15 A2993 RMK A01 T03330146  RH  032%=      5-min Rain = 0
KLO1 260041Z 14015KT 33/15 A2993 RMK A01 T03330147  RH  033%=      5-min Rain = 0
KLO1 260042Z 15017KT 33/15 A2993 RMK A01 T03330146  RH  032%=      5-min Rain = 0
KLO1 260043Z 15017KT 33/15 A2993 RMK A01 T03330147  RH  032%=      5-min Rain = 0
KLO1 260044Z 14017KT 33/15 A2993 RMK A01 T03330147  RH  033%=      5-min Rain = 0
KLO1 260045Z 14016KT 33/15 A2993 RMK A01 T03330149  RH  033%=      5-min Rain = 0
KLO1 260046Z 13017KT 33/15 A2993 RMK A01 T03330151  RH  034%=      5-min Rain = 0
KLO1 260047Z 15018G23KT 33/15 A2993 RMK A01 T03320151  RH  034%=      5-min Rain = 0
KLO1 260048Z 15018KT 33/15 A2993 RMK A01 T03320147  RH  033%=      5-min Rain = 0
KLO1 260049Z 15015KT 33/15 A2994 RMK A01 T03320147  RH  033%=      5-min Rain = 0
KLO1 260050Z 14017KT 33/15 A2993 RMK A01 T03320148  RH  033%=      5-min Rain = 0
KLO1 260051Z 15020KT 33/15 A2994 RMK A01 T03320149  RH  033%=      5-min Rain = 0
KLO1 260052Z 15018KT 33/15 A2993 RMK A01 T03320149  RH  033%=      5-min Rain = 0
KLO1 260053Z 16017KT 33/15 A2994 RMK A01 T03310150  RH  034%=      5-min Rain = 0
KLO1 260054Z 15016KT 33/15 A2994 RMK A01 T03300151  RH  034%=      5-min Rain = 0
KLO1 260055Z 15016KT 33/15 A2994 RMK A01 T03300151  RH  034%=      5-min Rain = 0
KLO1 260056Z 15016G23KT 33/15 A2994 RMK A01 T03300152  RH  034%=      5-min Rain = 0
KLO1 260057Z 15019KT 33/15 A2994 RMK A01 T03300151  RH  034%=      5-min Rain = 0
KLO1 260058Z 15020KT 33/15 A2994 RMK A01 T03300151  RH  034%=      5-min Rain = 0
KLO1 260059Z 15018KT 33/15 A2994 RMK A01 T03290151  RH  034%=      5-min Rain = 0
KLO1 260100Z 15019KT 33/15 A2994 RMK A01 T03290151  RH  034%=      5-min Rain = 0
KLO1 260101Z 14021KT 33/15 A2994 RMK A01 T03280152  RH  035%=      5-min Rain = 0
KLO1 260102Z 14020KT 33/15 A2994 RMK A01 T03270151  RH  035%=      5-min Rain = 0
KLO1 260103Z 14020KT 33/15 A2994 RMK A01 T03260151  RH  035%=      5-min Rain = 0
KLO1 260104Z 14018KT 33/15 A2994 RMK A01 T03250151  RH  035%=      5-min Rain = 0
KLO1 260105Z 15018KT 32/15 A2994 RMK A01 T03240151  RH  035%=      5-min Rain = 0
KLO1 260106Z 15018KT 32/15 A2994 RMK A01 T03240151  RH  035%=      5-min Rain = 0
KLO1 260107Z 16018KT 32/15 A2994 RMK A01 T03240148  RH  035%=      5-min Rain = 0
KLO1 260108Z 15018KT 32/15 A2994 RMK A01 T03240148  RH  034%=      5-min Rain = 0
KLO1 260109Z 15020KT 32/15 A2994 RMK A01 T03240147  RH  034%=      5-min Rain = 0
KLO1 260110Z 15017KT 32/15 A2994 RMK A01 T03240146  RH  034%=      5-min Rain = 0
KLO1 260111Z 14017KT 32/15 A2994 RMK A01 T03240147  RH  034%=      5-min Rain = 0
KLO1 260112Z 15018KT 32/15 A2994 RMK A01 T03240152  RH  036%=      5-min Rain = 0
KLO1 260113Z 14017KT 32/15 A2994 RMK A01 T03230154  RH  036%=      5-min Rain = 0
KLO1 260114Z 14017KT 32/16 A2994 RMK A01 T03220155  RH  037%=      5-min Rain = 0
KLO1 260115Z 14018KT 32/16 A2995 RMK A01 T03220156  RH  037%=      5-min Rain = 0
KLO1 260116Z 14019KT 32/16 A2994 RMK A01 T03210155  RH  037%=      5-min Rain = 0
KLO1 260117Z 15018KT 32/16 A2994 RMK A01 T03210155  RH  037%=      5-min Rain = 0
KLO1 260118Z 15016KT 32/16 A2994 RMK A01 T03210155  RH  037%=      5-min Rain = 0
KLO1 260119Z 14016KT 32/15 A2995 RMK A01 T03200154  RH  037%=      5-min Rain = 0
KLO1 260120Z 14015KT 32/16 A2995 RMK A01 T03200155  RH  037%=      5-min Rain = 0
KLO1 260121Z 14014KT 32/16 A2995 RMK A01 T03200155  RH  037%=      5-min Rain = 0
KLO1 260122Z 14013KT 32/16 A2995 RMK A01 T03190155  RH  037%=      5-min Rain = 0
KLO1 260123Z 15013KT 32/16 A2995 RMK A01 T03190155  RH  037%=      5-min Rain = 0
KLO1 260124Z 14014KT 32/15 A2994 RMK A01 T03180154  RH  037%=      5-min Rain = 0
KLO1 260125Z 15019KT 32/15 A2994 RMK A01 T03180153  RH  037%=      5-min Rain = 0
KLO1 260126Z 15016KT 32/15 A2994 RMK A01 T03170150  RH  036%=      5-min Rain = 0
KLO1 260127Z 15015KT 32/15 A2994 RMK A01 T03180150  RH  036%=      5-min Rain = 0
KLO1 260128Z 16017KT 32/15 A2994 RMK A01 T03170148  RH  036%=      5-min Rain = 0
KLO1 260129Z 15018KT 32/15 A2994 RMK A01 T03170147  RH  036%=      5-min Rain = 0
KLO1 260130Z 15015KT 32/15 A2994 RMK A01 T03160147  RH  036%=      5-min Rain = 0
KLO1 260131Z 15018KT 32/15 A2994 RMK A01 T03160148  RH  036%=      5-min Rain = 0
KLO1 260132Z 15019KT 32/15 A2994 RMK A01 T03160149  RH  036%=      5-min Rain = 0
KLO1 260133Z 15018KT 32/15 A2994 RMK A01 T03150149  RH  037%=      5-min Rain = 0
KLO1 260134Z 16017KT 32/15 A2994 RMK A01 T03150149  RH  037%=      5-min Rain = 0
KLO1 260135Z 15016KT 32/15 A2994 RMK A01 T03150150  RH  037%=      5-min Rain = 0
KLO1 260136Z 15018KT 31/15 A2994 RMK A01 T03140149  RH  037%=      5-min Rain = 0
KLO1 260137Z 15019KT 31/15 A2994 RMK A01 T03140149  RH  037%=      5-min Rain = 0
KLO1 260138Z 15015KT 31/15 A2994 RMK A01 T03140149  RH  037%=      5-min Rain = 0
KLO1 260139Z 15015KT 31/15 A2995 RMK A01 T03130149  RH  037%=      5-min Rain = 0
KLO1 260140Z 15015KT 31/15 A2995 RMK A01 T03130149  RH  037%=      5-min Rain = 0
KLO1 260141Z 15015KT 31/15 A2995 RMK A01 T03130149  RH  037%=      5-min Rain = 0
KLO1 260142Z 15017KT 31/15 A2995 RMK A01 T03120148  RH  037%=      5-min Rain = 0
KLO1 260143Z 15016KT 31/15 A2995 RMK A01 T03120149  RH  037%=      5-min Rain = 0
KLO1 260144Z 15018KT 31/15 A2995 RMK A01 T03120149  RH  037%=      5-min Rain = 0
KLO1 260145Z 15016KT 31/15 A2995 RMK A01 T03110149  RH  037%=      5-min Rain = 0
KLO1 260146Z 16017KT 31/15 A2995 RMK A01 T03110149  RH  038%=      5-min Rain = 0
KLO1 260147Z 16015KT 31/15 A2995 RMK A01 T03110150  RH  038%=      5-min Rain = 0
KLO1 260148Z 15017KT 31/15 A2995 RMK A01 T03100150  RH  038%=      5-min Rain = 0
KLO1 260149Z 16020KT 31/15 A2995 RMK A01 T03100150  RH  038%=      5-min Rain = 0
KLO1 260150Z 16017G22KT 31/15 A2995 RMK A01 T03100150  RH  038%=      5-min Rain = 0
KLO1 260151Z 16016KT 31/15 A2995 RMK A01 T03090151  RH  038%=      5-min Rain = 0
KLO1 260152Z 16015KT 31/15 A2995 RMK A01 T03090151  RH  039%=      5-min Rain = 0
KLO1 260153Z 16015G20KT 31/15 A2995 RMK A01 T03080151  RH  039%=      5-min Rain = 0
KLO1 260154Z 16015KT 31/15 A2995 RMK A01 T03070151  RH  039%=      5-min Rain = 0
KLO1 260155Z 16016KT 31/15 A2995 RMK A01 T03060151  RH  039%=      5-min Rain = 0
KLO1 260156Z 16013G18KT 31/15 A2995 RMK A01 T03060152  RH  039%=      5-min Rain = 0
KLO1 260157Z 16013KT 31/15 A2995 RMK A01 T03060151  RH  039%=      5-min Rain = 0
KLO1 260158Z 16016KT 31/15 A2995 RMK A01 T03050151  RH  039%=      5-min Rain = 0
KLO1 260159Z 16013KT 31/15 A2995 RMK A01 T03050150  RH  039%=      5-min Rain = 0
KLO1 260200Z 16013KT 31/15 A2995 RMK A01 T03050150  RH  039%=      5-min Rain = 0
KLO1 260201Z 16015KT 31/15 A2995 RMK A01 T03050149  RH  039%=      5-min Rain = 0
KLO1 260202Z 15015KT 30/15 A2995 RMK A01 T03040148  RH  039%=      5-min Rain = 0
KLO1 260203Z 15015KT 30/15 A2995 RMK A01 T03040148  RH  039%=      5-min Rain = 0
KLO1 260204Z 16016KT 30/15 A2995 RMK A01 T03040147  RH  038%=      5-min Rain = 0
KLO1 260205Z 15015KT 30/15 A2995 RMK A01 T03040147  RH  038%=      5-min Rain = 0
KLO1 260206Z 15017KT 30/15 A2995 RMK A01 T03040146  RH  038%=      5-min Rain = 0
KLO1 260207Z 15015KT 30/15 A2995 RMK A01 T03040145  RH  038%=      5-min Rain = 0
KLO1 260208Z 15014KT 30/15 A2995 RMK A01 T03040145  RH  038%=      5-min Rain = 0
KLO1 260209Z 15015KT 30/15 A2995 RMK A01 T03030145  RH  038%=      5-min Rain = 0
KLO1 260210Z 15016KT 30/14 A2995 RMK A01 T03030144  RH  038%=      5-min Rain = 0
KLO1 260211Z 15017KT 30/14 A2995 RMK A01 T03030144  RH  038%=      5-min Rain = 0
KLO1 260212Z 15015KT 30/14 A2995 RMK A01 T03030144  RH  038%=      5-min Rain = 0
KLO1 260213Z 15014KT 30/14 A2995 RMK A01 T03030143  RH  038%=      5-min Rain = 0
KLO1 260214Z 15015KT 30/14 A2995 RMK A01 T03020143  RH  038%=      5-min Rain = 0
KLO1 260215Z 15015KT 30/14 A2995 RMK A01 T03020142  RH  038%=      5-min Rain = 0
KLO1 260216Z 15014KT 30/14 A2996 RMK A01 T03010141  RH  038%=      5-min Rain = 0
KLO1 260217Z 15014KT 30/14 A2996 RMK A01 T03010141  RH  038%=      5-min Rain = 0
KLO1 260218Z 15015KT 30/14 A2996 RMK A01 T03010141  RH  038%=      5-min Rain = 0
KLO1 260219Z 15015KT 30/14 A2996 RMK A01 T03010141  RH  038%=      5-min Rain = 0
KLO1 260220Z 15012KT 30/14 A2996 RMK A01 T03000141  RH  038%=      5-min Rain = 0
KLO1 260221Z 15014KT 30/14 A2996 RMK A01 T03000141  RH  038%=      5-min Rain = 0
KLO1 260222Z 15013KT 30/14 A2996 RMK A01 T02990141  RH  038%=      5-min Rain = 0
KLO1 260223Z 15016KT 30/14 A2996 RMK A01 T02990142  RH  038%=      5-min Rain = 0
KLO1 260224Z 15015KT 30/14 A2996 RMK A01 T02990142  RH  038%=      5-min Rain = 0
KLO1 260225Z 16016KT 30/14 A2996 RMK A01 T02990143  RH  038%=      5-min Rain = 0
KLO1 260226Z 16014KT 30/14 A2997 RMK A01 T02990143  RH  039%=      5-min Rain = 0
KLO1 260227Z 16015KT 30/14 A2997 RMK A01 T02980143  RH  039%=      5-min Rain = 0
KLO1 260228Z 16014KT 30/14 A2997 RMK A01 T02980143  RH  039%=      5-min Rain = 0
KLO1 260229Z 16017KT 30/14 A2997 RMK A01 T02970143  RH  039%=      5-min Rain = 0
KLO1 260230Z 16015KT 30/14 A2997 RMK A01 T02980144  RH  039%=      5-min Rain = 0
KLO1 260231Z 15014KT 30/14 A2997 RMK A01 T02970143  RH  039%=      5-min Rain = 0
KLO1 260232Z 16013KT 30/14 A2997 RMK A01 T02960143  RH  039%=      5-min Rain = 0
KLO1 260233Z 16013KT 30/14 A2997 RMK A01 T02960143  RH  039%=      5-min Rain = 0
KLO1 260234Z 16014KT 30/14 A2997 RMK A01 T02950143  RH  039%=      5-min Rain = 0
KLO1 260235Z 16014KT 30/14 A2997 RMK A01 T02960143  RH  039%=      5-min Rain = 0
KLO1 260236Z 15012KT 30/14 A2997 RMK A01 T02950143  RH  040%=      5-min Rain = 0
KLO1 260237Z 15012KT 29/14 A2997 RMK A01 T02940143  RH  040%=      5-min Rain = 0
KLO1 260238Z 15011KT 29/14 A2997 RMK A01 T02940143  RH  040%=      5-min Rain = 0
KLO1 260239Z 15012KT 29/14 A2997 RMK A01 T02930143  RH  040%=      5-min Rain = 0
KLO1 260240Z 15012KT 29/14 A2997 RMK A01 T02930143  RH  040%=      5-min Rain = 0
KLO1 260241Z 15013KT 29/14 A2998 RMK A01 T02930143  RH  040%=      5-min Rain = 0
KLO1 260242Z 15012KT 29/14 A2998 RMK A01 T02930142  RH  040%=      5-min Rain = 0
KLO1 260243Z 15010KT 29/14 A2998 RMK A01 T02930142  RH  040%=      5-min Rain = 0
KLO1 260244Z 15011KT 29/14 A2998 RMK A01 T02920142  RH  040%=      5-min Rain = 0
KLO1 260245Z 15013KT 29/14 A2998 RMK A01 T02920142  RH  040%=      5-min Rain = 0
KLO1 260246Z 15011KT 29/14 A2998 RMK A01 T02920142  RH  040%=      5-min Rain = 0
KLO1 260247Z 15011KT 29/14 A2998 RMK A01 T02920141  RH  040%=      5-min Rain = 0
KLO1 260248Z 15010KT 29/14 A2998 RMK A01 T02920141  RH  040%=      5-min Rain = 0
KLO1 260249Z 15011KT 29/14 A2999 RMK A01 T02910141  RH  040%=      5-min Rain = 0
KLO1 260250Z 15009KT 29/14 A2999 RMK A01 T02910141  RH  040%=      5-min Rain = 0
KLO1 260251Z 15010KT 29/14 A2999 RMK A01 T02900141  RH  040%=      5-min Rain = 0
KLO1 260252Z 15010KT 29/14 A2999 RMK A01 T02900141  RH  040%=      5-min Rain = 0
KLO1 260253Z 14011KT 29/14 A2999 RMK A01 T02900141  RH  040%=      5-min Rain = 0
KLO1 260254Z 15010KT 29/14 A2999 RMK A01 T02900141  RH  040%=      5-min Rain = 0
KLO1 260255Z 14010KT 29/14 A2999 RMK A01 T02890141  RH  040%=      5-min Rain = 0
KLO1 260256Z 14010KT 29/14 A30 RMK A01 T02890141  RH  040%=      5-min Rain = 0
KLO1 260257Z 14008KT 29/14 A30 RMK A01 T02890142  RH  041%=      5-min Rain = 0
KLO1 260258Z 14009KT 29/14 A30 RMK A01 T02880142  RH  041%=      5-min Rain = 0
KLO1 260259Z 14009KT 29/14 A30 RMK A01 T02870142  RH  041%=      5-min Rain = 0
KLO1 260300Z 15010KT 29/14 A30 RMK A01 T02870142  RH  041%=      5-min Rain = 0
KLO1 260301Z 14010KT 29/14 A30 RMK A01 T02870142  RH  041%=      5-min Rain = 0
KLO1 260302Z 15010KT 29/14 A30 RMK A01 T02860142  RH  041%=      5-min Rain = 0
KLO1 260303Z 15012KT 29/14 A30 RMK A01 T02860142  RH  041%=      5-min Rain = 0
KLO1 260304Z 14011KT 29/14 A30 RMK A01 T02860142  RH  041%=      5-min Rain = 0
KLO1 260305Z 14011KT 29/14 A30 RMK A01 T02870143  RH  041%=      5-min Rain = 0
KLO1 260306Z 15011KT 29/14 A3001 RMK A01 T02860143  RH  041%=      5-min Rain = 0
KLO1 260307Z 14011KT 29/14 A3001 RMK A01 T02860144  RH  042%=      5-min Rain = 0
KLO1 260308Z 14010KT 29/14 A3001 RMK A01 T02860144  RH  042%=      5-min Rain = 0
KLO1 260309Z 14011KT 29/14 A3001 RMK A01 T02860144  RH  042%=      5-min Rain = 0
KLO1 260310Z 14011KT 29/14 A3001 RMK A01 T02850144  RH  042%=      5-min Rain = 0
KLO1 260311Z 14009KT 29/15 A3001 RMK A01 T02850145  RH  042%=      5-min Rain = 0
KLO1 260312Z 14009KT 28/14 A3001 RMK A01 T02840144  RH  042%=      5-min Rain = 0
KLO1 260313Z 13009KT 28/15 A3001 RMK A01 T02830145  RH  043%=      5-min Rain = 0
KLO1 260314Z 14009KT 28/15 A3001 RMK A01 T02830145  RH  043%=      5-min Rain = 0
KLO1 260315Z 13009KT 28/15 A3001 RMK A01 T02820145  RH  043%=      5-min Rain = 0
KLO1 260316Z 14009KT 28/15 A3001 RMK A01 T02810145  RH  043%=      5-min Rain = 0
KLO1 260317Z 13009KT 28/15 A3001 RMK A01 T02800145  RH  044%=      5-min Rain = 0
KLO1 260318Z 14010KT 28/15 A3001 RMK A01 T02800146  RH  044%=      5-min Rain = 0
KLO1 260319Z 14011KT 28/15 A3002 RMK A01 T02800147  RH  044%=      5-min Rain = 0
KLO1 260320Z 14011KT 28/15 A3002 RMK A01 T02800147  RH  044%=      5-min Rain = 0
KLO1 260321Z 14010KT 28/15 A3002 RMK A01 T02800147  RH  044%=      5-min Rain = 0
KLO1 260322Z 14009KT 28/15 A3002 RMK A01 T02800147  RH  044%=      5-min Rain = 0
KLO1 260323Z 14011KT 28/15 A3002 RMK A01 T02800148  RH  044%=      5-min Rain = 0
KLO1 260324Z 14010KT 28/15 A3002 RMK A01 T02800148  RH  045%=      5-min Rain = 0
KLO1 260325Z 14010KT 28/15 A3003 RMK A01 T02800148  RH  045%=      5-min Rain = 0
KLO1 260326Z 14010KT 28/15 A3003 RMK A01 T02800149  RH  045%=      5-min Rain = 0
KLO1 260327Z 14011KT 28/15 A3003 RMK A01 T02800149  RH  045%=      5-min Rain = 0
KLO1 260328Z 14010KT 28/15 A3003 RMK A01 T02800150  RH  045%=      5-min Rain = 0
KLO1 260329Z 14010KT 28/15 A3003 RMK A01 T02800150  RH  045%=      5-min Rain = 0
KLO1 260330Z 15010KT 28/15 A3003 RMK A01 T02800150  RH  045%=      5-min Rain = 0
KLO1 260331Z 15010KT 28/15 A3003 RMK A01 T02790149  RH  045%=      5-min Rain = 0
KLO1 260332Z 14012KT 28/15 A3003 RMK A01 T02790150  RH  045%=      5-min Rain = 0
KLO1 260333Z 15010KT 28/15 A3004 RMK A01 T02790150  RH  045%=      5-min Rain = 0
KLO1 260334Z 15011KT 28/15 A3004 RMK A01 T02800150  RH  045%=      5-min Rain = 0
KLO1 260335Z 15010KT 28/15 A3004 RMK A01 T02790150  RH  045%=      5-min Rain = 0
KLO1 260336Z 15010KT 28/15 A3004 RMK A01 T02790150  RH  045%=      5-min Rain = 0
KLO1 260337Z 15011KT 28/15 A3004 RMK A01 T02790150  RH  045%=      5-min Rain = 0
KLO1 260338Z 15010KT 28/15 A3004 RMK A01 T02790150  RH  045%=      5-min Rain = 0
KLO1 260339Z 15010KT 28/15 A3004 RMK A01 T02790150  RH  045%=      5-min Rain = 0
KLO1 260340Z 15010KT 28/15 A3004 RMK A01 T02790150  RH  045%=      5-min Rain = 0
KLO1 260341Z 15010KT 28/15 A3005 RMK A01 T02790150  RH  045%=      5-min Rain = 0
KLO1 260342Z 15011KT 28/15 A3005 RMK A01 T02790150  RH  046%=      5-min Rain = 0
KLO1 260343Z 15010KT 28/15 A3005 RMK A01 T02780150  RH  046%=      5-min Rain = 0
KLO1 260344Z 15010KT 28/15 A3005 RMK A01 T02780150  RH  046%=      5-min Rain = 0
KLO1 260345Z 15011KT 28/15 A3005 RMK A01 T02780150  RH  046%=      5-min Rain = 0
KLO1 260346Z 15010KT 28/15 A3005 RMK A01 T02780150  RH  045%=      5-min Rain = 0
KLO1 260347Z 15009KT 28/15 A3005 RMK A01 T02780150  RH  046%=      5-min Rain = 0
KLO1 260348Z 15010KT 28/15 A3005 RMK A01 T02780150  RH  046%=      5-min Rain = 0
KLO1 260349Z 15009KT 28/15 A3005 RMK A01 T02780150  RH  046%=      5-min Rain = 0
KLO1 260350Z 15009KT 28/15 A3005 RMK A01 T02770150  RH  046%=      5-min Rain = 0
KLO1 260351Z 15009KT 28/15 A3005 RMK A01 T02770150  RH  046%=      5-min Rain = 0
KLO1 260352Z 15011KT 28/15 A3005 RMK A01 T02760150  RH  046%=      5-min Rain = 0
KLO1 260353Z 15010KT 28/15 A3005 RMK A01 T02760150  RH  046%=      5-min Rain = 0
KLO1 260354Z 15009KT 28/15 A3005 RMK A01 T02760150  RH  046%=      5-min Rain = 0
KLO1 260355Z 15010KT 28/15 A3005 RMK A01 T02760150  RH  046%=      5-min Rain = 0
KLO1 260356Z 16010KT 28/15 A3006 RMK A01 T02760150  RH  046%=      5-min Rain = 0
KLO1 260357Z 15009KT 28/15 A3006 RMK A01 T02760150  RH  046%=      5-min Rain = 0
KLO1 260358Z 15009KT 28/15 A3006 RMK A01 T02750150  RH  046%=      5-min Rain = 0
KLO1 260359Z 16010KT 28/15 A3006 RMK A01 T02750151  RH  046%=      5-min Rain = 0
KLO1 260400Z 16009KT 28/15 A3006 RMK A01 T02750151  RH  046%=      5-min Rain = 0
KLO1 260401Z 16009KT 28/15 A3006 RMK A01 T02750150  RH  047%=      5-min Rain = 0
KLO1 260402Z 16009KT 27/15 A3006 RMK A01 T02740150  RH  047%=      5-min Rain = 0
KLO1 260403Z 15009KT 27/15 A3006 RMK A01 T02740150  RH  047%=      5-min Rain = 0
KLO1 260404Z 16009KT 27/15 A3006 RMK A01 T02730150  RH  047%=      5-min Rain = 0
KLO1 260405Z 16009KT 27/15 A3006 RMK A01 T02730150  RH  047%=      5-min Rain = 0
KLO1 260406Z 16009KT 27/15 A3006 RMK A01 T02730150  RH  047%=      5-min Rain = 0
KLO1 260407Z 16009KT 27/15 A3006 RMK A01 T02720150  RH  047%=      5-min Rain = 0
KLO1 260408Z 16009KT 27/15 A3006 RMK A01 T02720150  RH  047%=      5-min Rain = 0
KLO1 260409Z 16009KT 27/15 A3006 RMK A01 T02720150  RH  047%=      5-min Rain = 0
KLO1 260410Z 16009KT 27/15 A3006 RMK A01 T02710150  RH  047%=      5-min Rain = 0
KLO1 260411Z 16009KT 27/15 A3006 RMK A01 T02710150  RH  048%=      5-min Rain = 0
KLO1 260412Z 16009KT 27/15 A3006 RMK A01 T02700150  RH  048%=      5-min Rain = 0
KLO1 260413Z 16009KT 27/15 A3005 RMK A01 T02700150  RH  048%=      5-min Rain = 0
KLO1 260414Z 16009KT 27/15 A3006 RMK A01 T02690150  RH  048%=      5-min Rain = 0
KLO1 260415Z 16008KT 27/15 A3006 RMK A01 T02690151  RH  048%=      5-min Rain = 0
KLO1 260416Z 17008KT 27/15 A3006 RMK A01 T02690151  RH  048%=      5-min Rain = 0
KLO1 260417Z 16008KT 27/15 A3006 RMK A01 T02690151  RH  048%=      5-min Rain = 0
KLO1 260418Z 16008KT 27/15 A3005 RMK A01 T02680151  RH  049%=      5-min Rain = 0
KLO1 260419Z 17008KT 27/15 A3005 RMK A01 T02680151  RH  049%=      5-min Rain = 0
KLO1 260420Z 17008KT 27/15 A3005 RMK A01 T02680151  RH  049%=      5-min Rain = 0
KLO1 260421Z 17009KT 27/15 A3005 RMK A01 T02670152  RH  049%=      5-min Rain = 0
KLO1 260422Z 17009KT 27/15 A3005 RMK A01 T02680152  RH  049%=      5-min Rain = 0
KLO1 260423Z 17009KT 27/15 A3005 RMK A01 T02680153  RH  049%=      5-min Rain = 0
KLO1 260424Z 17010KT 27/15 A3005 RMK A01 T02680153  RH  050%=      5-min Rain = 0
KLO1 260425Z 17009KT 27/15 A3005 RMK A01 T02670154  RH  050%=      5-min Rain = 0
KLO1 260426Z 17010KT 27/16 A3005 RMK A01 T02670155  RH  050%=      5-min Rain = 0
KLO1 260427Z 17009KT 27/16 A3005 RMK A01 T02680156  RH  050%=      5-min Rain = 0
KLO1 260428Z 17010KT 27/16 A3005 RMK A01 T02680157  RH  051%=      5-min Rain = 0
KLO1 260429Z 17010KT 27/16 A3005 RMK A01 T02680157  RH  051%=      5-min Rain = 0
KLO1 260430Z 17011KT 27/16 A3005 RMK A01 T02670158  RH  051%=      5-min Rain = 0
KLO1 260431Z 17011KT 27/16 A3005 RMK A01 T02680159  RH  051%=      5-min Rain = 0
KLO1 260432Z 17011KT 27/16 A3005 RMK A01 T02690160  RH  051%=      5-min Rain = 0
KLO1 260433Z 17009KT 27/16 A3005 RMK A01 T02690161  RH  052%=      5-min Rain = 0
KLO1 260434Z 17010KT 27/16 A3005 RMK A01 T02690161  RH  052%=      5-min Rain = 0
KLO1 260435Z 17010KT 27/16 A3005 RMK A01 T02690161  RH  052%=      5-min Rain = 0
KLO1 260436Z 17010KT 27/16 A3005 RMK A01 T02690162  RH  052%=      5-min Rain = 0
KLO1 260437Z 16010KT 27/16 A3005 RMK A01 T02690162  RH  052%=      5-min Rain = 0
KLO1 260438Z 16009KT 27/16 A3005 RMK A01 T02690162  RH  052%=      5-min Rain = 0
KLO1 260439Z 16010KT 27/16 A3006 RMK A01 T02690163  RH  052%=      5-min Rain = 0
KLO1 260440Z 16010KT 27/16 A3006 RMK A01 T02690163  RH  052%=      5-min Rain = 0
KLO1 260441Z 16010KT 27/16 A3006 RMK A01 T02690164  RH  052%=      5-min Rain = 0
KLO1 260442Z 16011KT 27/16 A3006 RMK A01 T02690164  RH  053%=      5-min Rain = 0
KLO1 260443Z 16011KT 27/16 A3006 RMK A01 T02690164  RH  053%=      5-min Rain = 0
KLO1 260444Z 16010KT 27/17 A3006 RMK A01 T02690165  RH  053%=      5-min Rain = 0
KLO1 260445Z 16011KT 27/17 A3006 RMK A01 T02690165  RH  053%=      5-min Rain = 0
KLO1 260446Z 16011KT 27/17 A3006 RMK A01 T02680165  RH  053%=      5-min Rain = 0
KLO1 260447Z 16009KT 27/17 A3006 RMK A01 T02680165  RH  053%=      5-min Rain = 0
KLO1 260448Z 16009KT 27/17 A3006 RMK A01 T02680165  RH  053%=      5-min Rain = 0
KLO1 260449Z 16010KT 27/17 A3006 RMK A01 T02680165  RH  053%=      5-min Rain = 0
KLO1 260450Z 16010KT 27/17 A3006 RMK A01 T02670165  RH  053%=      5-min Rain = 0
KLO1 260451Z 17009KT 27/17 A3006 RMK A01 T02670165  RH  053%=      5-min Rain = 0
KLO1 260452Z 16010KT 27/17 A3006 RMK A01 T02670165  RH  054%=      5-min Rain = 0
KLO1 260453Z 16010KT 27/17 A3006 RMK A01 T02670165  RH  054%=      5-min Rain = 0
KLO1 260454Z 16010KT 27/17 A3006 RMK A01 T02670165  RH  054%=      5-min Rain = 0
KLO1 260455Z 16010KT 27/17 A3006 RMK A01 T02660165  RH  054%=      5-min Rain = 0
KLO1 260456Z 16008KT 27/17 A3006 RMK A01 T02660166  RH  054%=      5-min Rain = 0
KLO1 260457Z 16010KT 27/17 A3006 RMK A01 T02660166  RH  054%=      5-min Rain = 0
KLO1 260458Z 16009KT 27/17 A3006 RMK A01 T02660165  RH  054%=      5-min Rain = 0
KLO1 260459Z 16009KT 27/17 A3006 RMK A01 T02660166  RH  054%=      5-min Rain = 0

Page generated in 0.1313 seconds.